<?xml version="1.0" encoding="UTF-8" standalone="no" ?>
<gpx xmlns="http://www.topografix.com/GPX/1/1" xmlns:xsi="http://www.w3.org/2001/XMLSchema-instance" xsi:schemaLocation="http://www.topografix.com/GPX/1/1 http://www.topografix.com/GPX/1/1/gpx.xsd" version="1.1" creator="VisuGPX - https://www.visugpx.com">
  <metadata>
    <name>Thorame (04) - Fabas (82) -  2021</name>
    <desc><![CDATA[Thorame (04) - Fabas (82) -  2021
plus de voies vertes qu'à l'aller vers Tarascon...]]></desc>
  </metadata>
  <trk>
    <name><![CDATA[Jour02]]></name>
    <trkseg>
      <trkpt lat="43.85557" lon="5.59034">
        <ele>389</ele>
        <time>2021-08-14T05:53:05Z</time>
      </trkpt>
      <trkpt lat="43.85569" lon="5.58907">
        <ele>389.1</ele>
        <time>2021-08-14T05:53:52Z</time>
      </trkpt>
      <trkpt lat="43.85597" lon="5.58788">
        <ele>389.5</ele>
        <time>2021-08-14T05:54:32Z</time>
      </trkpt>
      <trkpt lat="43.85619" lon="5.58668">
        <ele>390.2</ele>
        <time>2021-08-14T05:55:12Z</time>
      </trkpt>
      <trkpt lat="43.85659" lon="5.58552">
        <ele>390.8</ele>
        <time>2021-08-14T05:55:37Z</time>
      </trkpt>
      <trkpt lat="43.85657" lon="5.58411">
        <ele>400.6</ele>
        <time>2021-08-14T05:56:17Z</time>
      </trkpt>
      <trkpt lat="43.85639" lon="5.58283">
        <ele>409.1</ele>
        <time>2021-08-14T05:56:57Z</time>
      </trkpt>
      <trkpt lat="43.85622" lon="5.58146">
        <ele>417.3</ele>
        <time>2021-08-14T05:57:46Z</time>
      </trkpt>
      <trkpt lat="43.85607" lon="5.58016">
        <ele>426.5</ele>
        <time>2021-08-14T05:58:31Z</time>
      </trkpt>
      <trkpt lat="43.8559" lon="5.57889">
        <ele>433.4</ele>
        <time>2021-08-14T05:59:18Z</time>
      </trkpt>
      <trkpt lat="43.85571" lon="5.57755">
        <ele>439.5</ele>
        <time>2021-08-14T06:00:09Z</time>
      </trkpt>
      <trkpt lat="43.85515" lon="5.57628">
        <ele>442</ele>
        <time>2021-08-14T06:00:44Z</time>
      </trkpt>
      <trkpt lat="43.85507" lon="5.5748">
        <ele>444.8</ele>
        <time>2021-08-14T06:01:14Z</time>
      </trkpt>
      <trkpt lat="43.85585" lon="5.57408">
        <ele>443.2</ele>
        <time>2021-08-14T06:01:24Z</time>
      </trkpt>
      <trkpt lat="43.85671" lon="5.57341">
        <ele>441.9</ele>
        <time>2021-08-14T06:01:34Z</time>
      </trkpt>
      <trkpt lat="43.85775" lon="5.57355">
        <ele>439.1</ele>
        <time>2021-08-14T06:01:44Z</time>
      </trkpt>
      <trkpt lat="43.85689" lon="5.57285">
        <ele>426.8</ele>
        <time>2021-08-14T06:02:04Z</time>
      </trkpt>
      <trkpt lat="43.85676" lon="5.57097">
        <ele>420.5</ele>
        <time>2021-08-14T06:02:19Z</time>
      </trkpt>
      <trkpt lat="43.85587" lon="5.57034">
        <ele>413.7</ele>
        <time>2021-08-14T06:02:29Z</time>
      </trkpt>
      <trkpt lat="43.85526" lon="5.56926">
        <ele>407.6</ele>
        <time>2021-08-14T06:02:39Z</time>
      </trkpt>
      <trkpt lat="43.85476" lon="5.56793">
        <ele>403.2</ele>
        <time>2021-08-14T06:02:49Z</time>
      </trkpt>
      <trkpt lat="43.85448" lon="5.56634">
        <ele>399.8</ele>
        <time>2021-08-14T06:02:59Z</time>
      </trkpt>
      <trkpt lat="43.85492" lon="5.565">
        <ele>391.6</ele>
        <time>2021-08-14T06:03:09Z</time>
      </trkpt>
      <trkpt lat="43.85559" lon="5.56409">
        <ele>384.2</ele>
        <time>2021-08-14T06:03:19Z</time>
      </trkpt>
      <trkpt lat="43.85641" lon="5.56292">
        <ele>362.5</ele>
        <time>2021-08-14T06:04:20Z</time>
      </trkpt>
      <trkpt lat="43.85706" lon="5.56197">
        <ele>354.3</ele>
        <time>2021-08-14T06:04:30Z</time>
      </trkpt>
      <trkpt lat="43.85769" lon="5.56106">
        <ele>349.6</ele>
        <time>2021-08-14T06:04:40Z</time>
      </trkpt>
      <trkpt lat="43.85796" lon="5.55941">
        <ele>343.6</ele>
        <time>2021-08-14T06:04:55Z</time>
      </trkpt>
      <trkpt lat="43.85811" lon="5.55812">
        <ele>335.9</ele>
        <time>2021-08-14T06:05:10Z</time>
      </trkpt>
      <trkpt lat="43.85791" lon="5.55676">
        <ele>328.3</ele>
        <time>2021-08-14T06:05:30Z</time>
      </trkpt>
      <trkpt lat="43.85745" lon="5.55527">
        <ele>321.7</ele>
        <time>2021-08-14T06:05:50Z</time>
      </trkpt>
      <trkpt lat="43.85694" lon="5.55382">
        <ele>315.8</ele>
        <time>2021-08-14T06:06:10Z</time>
      </trkpt>
      <trkpt lat="43.85614" lon="5.55253">
        <ele>309.5</ele>
        <time>2021-08-14T06:06:30Z</time>
      </trkpt>
      <trkpt lat="43.85565" lon="5.55136">
        <ele>308.2</ele>
        <time>2021-08-14T06:06:45Z</time>
      </trkpt>
      <trkpt lat="43.8553" lon="5.55007">
        <ele>308.9</ele>
        <time>2021-08-14T06:07:00Z</time>
      </trkpt>
      <trkpt lat="43.85495" lon="5.5487">
        <ele>311.5</ele>
        <time>2021-08-14T06:07:15Z</time>
      </trkpt>
      <trkpt lat="43.85452" lon="5.54744">
        <ele>313.3</ele>
        <time>2021-08-14T06:07:30Z</time>
      </trkpt>
      <trkpt lat="43.85409" lon="5.54624">
        <ele>314.6</ele>
        <time>2021-08-14T06:07:45Z</time>
      </trkpt>
      <trkpt lat="43.85382" lon="5.5446">
        <ele>314.8</ele>
        <time>2021-08-14T06:08:05Z</time>
      </trkpt>
      <trkpt lat="43.85372" lon="5.54317">
        <ele>315.1</ele>
        <time>2021-08-14T06:08:20Z</time>
      </trkpt>
      <trkpt lat="43.85344" lon="5.54174">
        <ele>314.8</ele>
        <time>2021-08-14T06:08:35Z</time>
      </trkpt>
      <trkpt lat="43.85294" lon="5.54043">
        <ele>314.3</ele>
        <time>2021-08-14T06:08:50Z</time>
      </trkpt>
      <trkpt lat="43.85249" lon="5.53926">
        <ele>312.2</ele>
        <time>2021-08-14T06:09:05Z</time>
      </trkpt>
      <trkpt lat="43.85207" lon="5.53778">
        <ele>310.6</ele>
        <time>2021-08-14T06:09:25Z</time>
      </trkpt>
      <trkpt lat="43.85179" lon="5.53656">
        <ele>310.9</ele>
        <time>2021-08-14T06:09:40Z</time>
      </trkpt>
      <trkpt lat="43.85176" lon="5.53517">
        <ele>311.6</ele>
        <time>2021-08-14T06:09:55Z</time>
      </trkpt>
      <trkpt lat="43.85171" lon="5.53376">
        <ele>310.7</ele>
        <time>2021-08-14T06:10:10Z</time>
      </trkpt>
      <trkpt lat="43.85171" lon="5.53235">
        <ele>309.6</ele>
        <time>2021-08-14T06:10:25Z</time>
      </trkpt>
      <trkpt lat="43.85198" lon="5.53111">
        <ele>309</ele>
        <time>2021-08-14T06:10:40Z</time>
      </trkpt>
      <trkpt lat="43.85202" lon="5.52968">
        <ele>308.9</ele>
        <time>2021-08-14T06:10:55Z</time>
      </trkpt>
      <trkpt lat="43.85175" lon="5.52817">
        <ele>307.1</ele>
        <time>2021-08-14T06:11:10Z</time>
      </trkpt>
      <trkpt lat="43.8514" lon="5.52664">
        <ele>305.5</ele>
        <time>2021-08-14T06:11:30Z</time>
      </trkpt>
      <trkpt lat="43.85159" lon="5.52497">
        <ele>304.2</ele>
        <time>2021-08-14T06:11:50Z</time>
      </trkpt>
      <trkpt lat="43.85167" lon="5.52328">
        <ele>303.2</ele>
        <time>2021-08-14T06:12:10Z</time>
      </trkpt>
      <trkpt lat="43.85171" lon="5.52184">
        <ele>302.6</ele>
        <time>2021-08-14T06:12:25Z</time>
      </trkpt>
      <trkpt lat="43.85196" lon="5.52059">
        <ele>302.2</ele>
        <time>2021-08-14T06:12:40Z</time>
      </trkpt>
      <trkpt lat="43.8523" lon="5.51912">
        <ele>302</ele>
        <time>2021-08-14T06:13:00Z</time>
      </trkpt>
      <trkpt lat="43.85261" lon="5.5179">
        <ele>302.4</ele>
        <time>2021-08-14T06:13:15Z</time>
      </trkpt>
      <trkpt lat="43.85316" lon="5.51673">
        <ele>303</ele>
        <time>2021-08-14T06:13:30Z</time>
      </trkpt>
      <trkpt lat="43.85363" lon="5.51566">
        <ele>303.8</ele>
        <time>2021-08-14T06:13:45Z</time>
      </trkpt>
      <trkpt lat="43.85369" lon="5.51426">
        <ele>304.4</ele>
        <time>2021-08-14T06:14:00Z</time>
      </trkpt>
      <trkpt lat="43.85361" lon="5.51288">
        <ele>304.7</ele>
        <time>2021-08-14T06:14:15Z</time>
      </trkpt>
      <trkpt lat="43.85347" lon="5.51145">
        <ele>305</ele>
        <time>2021-08-14T06:14:30Z</time>
      </trkpt>
      <trkpt lat="43.85279" lon="5.5099">
        <ele>304.7</ele>
        <time>2021-08-14T06:14:50Z</time>
      </trkpt>
      <trkpt lat="43.85212" lon="5.50867">
        <ele>304.1</ele>
        <time>2021-08-14T06:15:05Z</time>
      </trkpt>
      <trkpt lat="43.85155" lon="5.50751">
        <ele>304</ele>
        <time>2021-08-14T06:15:20Z</time>
      </trkpt>
      <trkpt lat="43.85101" lon="5.50638">
        <ele>303.4</ele>
        <time>2021-08-14T06:15:35Z</time>
      </trkpt>
      <trkpt lat="43.85069" lon="5.50484">
        <ele>304.2</ele>
        <time>2021-08-14T06:15:55Z</time>
      </trkpt>
      <trkpt lat="43.85051" lon="5.50342">
        <ele>304.4</ele>
        <time>2021-08-14T06:16:10Z</time>
      </trkpt>
      <trkpt lat="43.85055" lon="5.50188">
        <ele>304.7</ele>
        <time>2021-08-14T06:16:25Z</time>
      </trkpt>
      <trkpt lat="43.85065" lon="5.50039">
        <ele>304.5</ele>
        <time>2021-08-14T06:16:40Z</time>
      </trkpt>
      <trkpt lat="43.85075" lon="5.49881">
        <ele>305.5</ele>
        <time>2021-08-14T06:17:00Z</time>
      </trkpt>
      <trkpt lat="43.85067" lon="5.49719">
        <ele>306.2</ele>
        <time>2021-08-14T06:17:20Z</time>
      </trkpt>
      <trkpt lat="43.85048" lon="5.49567">
        <ele>307.1</ele>
        <time>2021-08-14T06:17:40Z</time>
      </trkpt>
      <trkpt lat="43.85002" lon="5.49445">
        <ele>303.3</ele>
        <time>2021-08-14T06:18:00Z</time>
      </trkpt>
      <trkpt lat="43.85029" lon="5.49308">
        <ele>301</ele>
        <time>2021-08-14T06:18:25Z</time>
      </trkpt>
      <trkpt lat="43.85009" lon="5.49165">
        <ele>299.6</ele>
        <time>2021-08-14T06:18:45Z</time>
      </trkpt>
      <trkpt lat="43.85014" lon="5.4902">
        <ele>298.2</ele>
        <time>2021-08-14T06:19:00Z</time>
      </trkpt>
      <trkpt lat="43.85047" lon="5.48852">
        <ele>297</ele>
        <time>2021-08-14T06:19:15Z</time>
      </trkpt>
      <trkpt lat="43.85076" lon="5.48689">
        <ele>295.5</ele>
        <time>2021-08-14T06:19:30Z</time>
      </trkpt>
      <trkpt lat="43.85062" lon="5.48537">
        <ele>294.2</ele>
        <time>2021-08-14T06:19:45Z</time>
      </trkpt>
      <trkpt lat="43.85039" lon="5.48374">
        <ele>292.9</ele>
        <time>2021-08-14T06:20:00Z</time>
      </trkpt>
      <trkpt lat="43.85009" lon="5.4825">
        <ele>289.5</ele>
        <time>2021-08-14T06:20:15Z</time>
      </trkpt>
      <trkpt lat="43.85009" lon="5.48086">
        <ele>287.4</ele>
        <time>2021-08-14T06:20:35Z</time>
      </trkpt>
      <trkpt lat="43.85059" lon="5.47974">
        <ele>284.9</ele>
        <time>2021-08-14T06:20:50Z</time>
      </trkpt>
      <trkpt lat="43.85133" lon="5.47887">
        <ele>282</ele>
        <time>2021-08-14T06:21:05Z</time>
      </trkpt>
      <trkpt lat="43.85211" lon="5.47819">
        <ele>278.6</ele>
        <time>2021-08-14T06:21:20Z</time>
      </trkpt>
      <trkpt lat="43.8529" lon="5.47755">
        <ele>275.4</ele>
        <time>2021-08-14T06:21:35Z</time>
      </trkpt>
      <trkpt lat="43.85383" lon="5.47711">
        <ele>272.1</ele>
        <time>2021-08-14T06:21:50Z</time>
      </trkpt>
      <trkpt lat="43.85482" lon="5.4768">
        <ele>268.3</ele>
        <time>2021-08-14T06:22:10Z</time>
      </trkpt>
      <trkpt lat="43.85568" lon="5.47652">
        <ele>265.3</ele>
        <time>2021-08-14T06:22:25Z</time>
      </trkpt>
      <trkpt lat="43.85656" lon="5.47604">
        <ele>263.3</ele>
        <time>2021-08-14T06:22:40Z</time>
      </trkpt>
      <trkpt lat="43.85767" lon="5.47526">
        <ele>261.1</ele>
        <time>2021-08-14T06:22:55Z</time>
      </trkpt>
      <trkpt lat="43.85859" lon="5.47449">
        <ele>261.4</ele>
        <time>2021-08-14T06:23:10Z</time>
      </trkpt>
      <trkpt lat="43.85923" lon="5.47358">
        <ele>260.4</ele>
        <time>2021-08-14T06:23:30Z</time>
      </trkpt>
      <trkpt lat="43.85961" lon="5.47225">
        <ele>259.7</ele>
        <time>2021-08-14T06:23:45Z</time>
      </trkpt>
      <trkpt lat="43.86003" lon="5.47116">
        <ele>258.7</ele>
        <time>2021-08-14T06:24:00Z</time>
      </trkpt>
      <trkpt lat="43.8606" lon="5.46983">
        <ele>258.4</ele>
        <time>2021-08-14T06:24:20Z</time>
      </trkpt>
      <trkpt lat="43.8611" lon="5.46872">
        <ele>258.9</ele>
        <time>2021-08-14T06:24:35Z</time>
      </trkpt>
      <trkpt lat="43.86169" lon="5.46743">
        <ele>259.5</ele>
        <time>2021-08-14T06:24:55Z</time>
      </trkpt>
      <trkpt lat="43.86234" lon="5.46635">
        <ele>261</ele>
        <time>2021-08-14T06:25:10Z</time>
      </trkpt>
      <trkpt lat="43.86315" lon="5.46521">
        <ele>263</ele>
        <time>2021-08-14T06:25:25Z</time>
      </trkpt>
      <trkpt lat="43.86392" lon="5.46414">
        <ele>261.7</ele>
        <time>2021-08-14T06:25:40Z</time>
      </trkpt>
      <trkpt lat="43.86474" lon="5.46311">
        <ele>259.3</ele>
        <time>2021-08-14T06:25:55Z</time>
      </trkpt>
      <trkpt lat="43.8656" lon="5.46206">
        <ele>258.8</ele>
        <time>2021-08-14T06:26:10Z</time>
      </trkpt>
      <trkpt lat="43.8665" lon="5.46095">
        <ele>258.5</ele>
        <time>2021-08-14T06:26:25Z</time>
      </trkpt>
      <trkpt lat="43.86688" lon="5.45978">
        <ele>260.9</ele>
        <time>2021-08-14T06:26:50Z</time>
      </trkpt>
      <trkpt lat="43.86689" lon="5.45823">
        <ele>261.6</ele>
        <time>2021-08-14T06:28:01Z</time>
      </trkpt>
      <trkpt lat="43.86757" lon="5.45694">
        <ele>258.8</ele>
        <time>2021-08-14T06:28:16Z</time>
      </trkpt>
      <trkpt lat="43.86847" lon="5.45571">
        <ele>258.7</ele>
        <time>2021-08-14T06:28:31Z</time>
      </trkpt>
      <trkpt lat="43.86908" lon="5.4547">
        <ele>260.8</ele>
        <time>2021-08-14T06:28:46Z</time>
      </trkpt>
      <trkpt lat="43.8696" lon="5.45371">
        <ele>262.2</ele>
        <time>2021-08-14T06:29:01Z</time>
      </trkpt>
      <trkpt lat="43.8704" lon="5.45266">
        <ele>260.9</ele>
        <time>2021-08-14T06:29:21Z</time>
      </trkpt>
      <trkpt lat="43.87111" lon="5.45156">
        <ele>263.8</ele>
        <time>2021-08-14T06:29:41Z</time>
      </trkpt>
      <trkpt lat="43.87175" lon="5.45054">
        <ele>264.1</ele>
        <time>2021-08-14T06:29:56Z</time>
      </trkpt>
      <trkpt lat="43.8726" lon="5.4495">
        <ele>264.2</ele>
        <time>2021-08-14T06:30:11Z</time>
      </trkpt>
      <trkpt lat="43.87363" lon="5.4487">
        <ele>263.1</ele>
        <time>2021-08-14T06:30:26Z</time>
      </trkpt>
      <trkpt lat="43.87461" lon="5.44817">
        <ele>257.5</ele>
        <time>2021-08-14T06:30:41Z</time>
      </trkpt>
      <trkpt lat="43.87556" lon="5.44767">
        <ele>253.5</ele>
        <time>2021-08-14T06:30:56Z</time>
      </trkpt>
      <trkpt lat="43.87642" lon="5.44717">
        <ele>251</ele>
        <time>2021-08-14T06:31:11Z</time>
      </trkpt>
      <trkpt lat="43.87754" lon="5.44646">
        <ele>249.7</ele>
        <time>2021-08-14T06:31:31Z</time>
      </trkpt>
      <trkpt lat="43.87848" lon="5.44591">
        <ele>248.7</ele>
        <time>2021-08-14T06:31:46Z</time>
      </trkpt>
      <trkpt lat="43.87937" lon="5.44503">
        <ele>248.6</ele>
        <time>2021-08-14T06:32:16Z</time>
      </trkpt>
      <trkpt lat="43.87997" lon="5.44387">
        <ele>247.3</ele>
        <time>2021-08-14T06:32:31Z</time>
      </trkpt>
      <trkpt lat="43.88016" lon="5.44228">
        <ele>246.3</ele>
        <time>2021-08-14T06:32:51Z</time>
      </trkpt>
      <trkpt lat="43.88009" lon="5.44087">
        <ele>246.8</ele>
        <time>2021-08-14T06:33:06Z</time>
      </trkpt>
      <trkpt lat="43.88001" lon="5.43951">
        <ele>246.1</ele>
        <time>2021-08-14T06:33:21Z</time>
      </trkpt>
      <trkpt lat="43.87998" lon="5.43805">
        <ele>245.3</ele>
        <time>2021-08-14T06:33:36Z</time>
      </trkpt>
      <trkpt lat="43.8799" lon="5.43653">
        <ele>244.2</ele>
        <time>2021-08-14T06:33:51Z</time>
      </trkpt>
      <trkpt lat="43.87993" lon="5.43481">
        <ele>242.7</ele>
        <time>2021-08-14T06:34:06Z</time>
      </trkpt>
      <trkpt lat="43.87987" lon="5.43323">
        <ele>241.8</ele>
        <time>2021-08-14T06:34:21Z</time>
      </trkpt>
      <trkpt lat="43.87985" lon="5.43169">
        <ele>242.8</ele>
        <time>2021-08-14T06:34:36Z</time>
      </trkpt>
      <trkpt lat="43.87975" lon="5.43025">
        <ele>243.1</ele>
        <time>2021-08-14T06:34:56Z</time>
      </trkpt>
      <trkpt lat="43.87956" lon="5.42869">
        <ele>242.1</ele>
        <time>2021-08-14T06:35:11Z</time>
      </trkpt>
      <trkpt lat="43.87914" lon="5.42736">
        <ele>240.2</ele>
        <time>2021-08-14T06:35:26Z</time>
      </trkpt>
      <trkpt lat="43.87868" lon="5.42621">
        <ele>238</ele>
        <time>2021-08-14T06:35:41Z</time>
      </trkpt>
      <trkpt lat="43.87852" lon="5.42487">
        <ele>237.5</ele>
        <time>2021-08-14T06:35:56Z</time>
      </trkpt>
      <trkpt lat="43.8786" lon="5.42359">
        <ele>236.6</ele>
        <time>2021-08-14T06:36:11Z</time>
      </trkpt>
      <trkpt lat="43.8786" lon="5.42206">
        <ele>236.1</ele>
        <time>2021-08-14T06:36:31Z</time>
      </trkpt>
      <trkpt lat="43.87829" lon="5.42051">
        <ele>236.1</ele>
        <time>2021-08-14T06:36:51Z</time>
      </trkpt>
      <trkpt lat="43.87806" lon="5.41894">
        <ele>236.8</ele>
        <time>2021-08-14T06:37:11Z</time>
      </trkpt>
      <trkpt lat="43.87804" lon="5.41741">
        <ele>237.8</ele>
        <time>2021-08-14T06:37:26Z</time>
      </trkpt>
      <trkpt lat="43.87796" lon="5.416">
        <ele>239.1</ele>
        <time>2021-08-14T06:37:41Z</time>
      </trkpt>
      <trkpt lat="43.8779" lon="5.41468">
        <ele>240.1</ele>
        <time>2021-08-14T06:37:56Z</time>
      </trkpt>
      <trkpt lat="43.87767" lon="5.41328">
        <ele>240.4</ele>
        <time>2021-08-14T06:38:16Z</time>
      </trkpt>
      <trkpt lat="43.87759" lon="5.41196">
        <ele>239.7</ele>
        <time>2021-08-14T06:38:31Z</time>
      </trkpt>
      <trkpt lat="43.87729" lon="5.41046">
        <ele>239.9</ele>
        <time>2021-08-14T06:38:51Z</time>
      </trkpt>
      <trkpt lat="43.87722" lon="5.40881">
        <ele>238.7</ele>
        <time>2021-08-14T06:39:06Z</time>
      </trkpt>
      <trkpt lat="43.87712" lon="5.40736">
        <ele>235.4</ele>
        <time>2021-08-14T06:39:21Z</time>
      </trkpt>
      <trkpt lat="43.87723" lon="5.40606">
        <ele>232.6</ele>
        <time>2021-08-14T06:39:51Z</time>
      </trkpt>
      <trkpt lat="43.87738" lon="5.40468">
        <ele>232.5</ele>
        <time>2021-08-14T06:40:16Z</time>
      </trkpt>
      <trkpt lat="43.8773" lon="5.40311">
        <ele>233.1</ele>
        <time>2021-08-14T06:40:41Z</time>
      </trkpt>
      <trkpt lat="43.87732" lon="5.4018">
        <ele>233.5</ele>
        <time>2021-08-14T06:41:01Z</time>
      </trkpt>
      <trkpt lat="43.87726" lon="5.40052">
        <ele>232.7</ele>
        <time>2021-08-14T06:41:21Z</time>
      </trkpt>
      <trkpt lat="43.87757" lon="5.39901">
        <ele>231.1</ele>
        <time>2021-08-14T06:41:41Z</time>
      </trkpt>
      <trkpt lat="43.87777" lon="5.39764">
        <ele>230.7</ele>
        <time>2021-08-14T06:42:01Z</time>
      </trkpt>
      <trkpt lat="43.87803" lon="5.39646">
        <ele>230.7</ele>
        <time>2021-08-14T06:42:21Z</time>
      </trkpt>
      <trkpt lat="43.87827" lon="5.39524">
        <ele>231.2</ele>
        <time>2021-08-14T06:42:46Z</time>
      </trkpt>
      <trkpt lat="43.87843" lon="5.39384">
        <ele>231.8</ele>
        <time>2021-08-14T06:43:11Z</time>
      </trkpt>
      <trkpt lat="43.87863" lon="5.39244">
        <ele>233.4</ele>
        <time>2021-08-14T06:43:36Z</time>
      </trkpt>
      <trkpt lat="43.87885" lon="5.3911">
        <ele>234.9</ele>
        <time>2021-08-14T06:43:56Z</time>
      </trkpt>
      <trkpt lat="43.87899" lon="5.38975">
        <ele>236.1</ele>
        <time>2021-08-14T06:44:16Z</time>
      </trkpt>
      <trkpt lat="43.87922" lon="5.38831">
        <ele>237.5</ele>
        <time>2021-08-14T06:44:36Z</time>
      </trkpt>
      <trkpt lat="43.87942" lon="5.387">
        <ele>238.9</ele>
        <time>2021-08-14T06:44:56Z</time>
      </trkpt>
      <trkpt lat="43.87997" lon="5.38596">
        <ele>238.1</ele>
        <time>2021-08-14T06:45:16Z</time>
      </trkpt>
      <trkpt lat="43.88078" lon="5.38527">
        <ele>235.7</ele>
        <time>2021-08-14T06:45:46Z</time>
      </trkpt>
      <trkpt lat="43.88156" lon="5.38465">
        <ele>234.3</ele>
        <time>2021-08-14T06:46:06Z</time>
      </trkpt>
      <trkpt lat="43.88232" lon="5.38387">
        <ele>232.9</ele>
        <time>2021-08-14T06:46:26Z</time>
      </trkpt>
      <trkpt lat="43.88311" lon="5.38324">
        <ele>232.1</ele>
        <time>2021-08-14T06:46:41Z</time>
      </trkpt>
      <trkpt lat="43.88388" lon="5.38258">
        <ele>232.8</ele>
        <time>2021-08-14T06:46:56Z</time>
      </trkpt>
      <trkpt lat="43.88485" lon="5.38175">
        <ele>231.7</ele>
        <time>2021-08-14T06:47:16Z</time>
      </trkpt>
      <trkpt lat="43.88547" lon="5.38087">
        <ele>233.7</ele>
        <time>2021-08-14T06:47:31Z</time>
      </trkpt>
      <trkpt lat="43.88594" lon="5.37983">
        <ele>229.3</ele>
        <time>2021-08-14T06:47:46Z</time>
      </trkpt>
      <trkpt lat="43.88638" lon="5.37871">
        <ele>225.9</ele>
        <time>2021-08-14T06:48:01Z</time>
      </trkpt>
      <trkpt lat="43.88669" lon="5.37739">
        <ele>223.1</ele>
        <time>2021-08-14T06:48:16Z</time>
      </trkpt>
      <trkpt lat="43.88685" lon="5.37618">
        <ele>220.7</ele>
        <time>2021-08-14T06:48:31Z</time>
      </trkpt>
      <trkpt lat="43.88687" lon="5.37484">
        <ele>217.6</ele>
        <time>2021-08-14T06:48:46Z</time>
      </trkpt>
      <trkpt lat="43.88669" lon="5.37357">
        <ele>213.5</ele>
        <time>2021-08-14T06:49:01Z</time>
      </trkpt>
      <trkpt lat="43.88642" lon="5.37226">
        <ele>211.7</ele>
        <time>2021-08-14T06:49:16Z</time>
      </trkpt>
      <trkpt lat="43.88618" lon="5.37093">
        <ele>212.6</ele>
        <time>2021-08-14T06:49:31Z</time>
      </trkpt>
      <trkpt lat="43.88596" lon="5.36956">
        <ele>212.2</ele>
        <time>2021-08-14T06:49:46Z</time>
      </trkpt>
      <trkpt lat="43.88568" lon="5.36813">
        <ele>210.5</ele>
        <time>2021-08-14T06:50:01Z</time>
      </trkpt>
      <trkpt lat="43.88542" lon="5.36674">
        <ele>209.5</ele>
        <time>2021-08-14T06:50:16Z</time>
      </trkpt>
      <trkpt lat="43.8852" lon="5.36545">
        <ele>209.3</ele>
        <time>2021-08-14T06:50:31Z</time>
      </trkpt>
      <trkpt lat="43.885" lon="5.3642">
        <ele>208.7</ele>
        <time>2021-08-14T06:50:46Z</time>
      </trkpt>
      <trkpt lat="43.88472" lon="5.36288">
        <ele>208.7</ele>
        <time>2021-08-14T06:51:11Z</time>
      </trkpt>
      <trkpt lat="43.8845" lon="5.3613">
        <ele>209.7</ele>
        <time>2021-08-14T06:51:36Z</time>
      </trkpt>
      <trkpt lat="43.88375" lon="5.36038">
        <ele>210.8</ele>
        <time>2021-08-14T06:52:25Z</time>
      </trkpt>
      <trkpt lat="43.88351" lon="5.35892">
        <ele>213.2</ele>
        <time>2021-08-14T06:52:50Z</time>
      </trkpt>
      <trkpt lat="43.88325" lon="5.35754">
        <ele>214.8</ele>
        <time>2021-08-14T06:53:10Z</time>
      </trkpt>
      <trkpt lat="43.88295" lon="5.35631">
        <ele>216.2</ele>
        <time>2021-08-14T06:53:30Z</time>
      </trkpt>
      <trkpt lat="43.8831" lon="5.35474">
        <ele>217.4</ele>
        <time>2021-08-14T06:53:50Z</time>
      </trkpt>
      <trkpt lat="43.88281" lon="5.35348">
        <ele>216.6</ele>
        <time>2021-08-14T06:54:05Z</time>
      </trkpt>
      <trkpt lat="43.88244" lon="5.35226">
        <ele>213.8</ele>
        <time>2021-08-14T06:54:20Z</time>
      </trkpt>
      <trkpt lat="43.882" lon="5.35083">
        <ele>210.9</ele>
        <time>2021-08-14T06:54:35Z</time>
      </trkpt>
      <trkpt lat="43.88146" lon="5.34919">
        <ele>207.5</ele>
        <time>2021-08-14T06:54:50Z</time>
      </trkpt>
      <trkpt lat="43.88094" lon="5.3476">
        <ele>204.4</ele>
        <time>2021-08-14T06:55:05Z</time>
      </trkpt>
      <trkpt lat="43.88039" lon="5.34621">
        <ele>200.7</ele>
        <time>2021-08-14T06:55:20Z</time>
      </trkpt>
      <trkpt lat="43.88116" lon="5.34546">
        <ele>203.6</ele>
        <time>2021-08-14T06:56:13Z</time>
      </trkpt>
      <trkpt lat="43.88089" lon="5.34378">
        <ele>202</ele>
        <time>2021-08-14T06:56:33Z</time>
      </trkpt>
      <trkpt lat="43.88066" lon="5.34233">
        <ele>201.4</ele>
        <time>2021-08-14T06:56:48Z</time>
      </trkpt>
      <trkpt lat="43.8803" lon="5.34078">
        <ele>200.5</ele>
        <time>2021-08-14T06:57:08Z</time>
      </trkpt>
      <trkpt lat="43.87935" lon="5.33989">
        <ele>200.2</ele>
        <time>2021-08-14T06:57:38Z</time>
      </trkpt>
      <trkpt lat="43.87927" lon="5.33844">
        <ele>200.3</ele>
        <time>2021-08-14T06:57:58Z</time>
      </trkpt>
      <trkpt lat="43.87896" lon="5.33698">
        <ele>202.6</ele>
        <time>2021-08-14T06:58:28Z</time>
      </trkpt>
      <trkpt lat="43.87823" lon="5.33597">
        <ele>207</ele>
        <time>2021-08-14T06:58:53Z</time>
      </trkpt>
      <trkpt lat="43.87728" lon="5.33528">
        <ele>206.5</ele>
        <time>2021-08-14T06:59:18Z</time>
      </trkpt>
      <trkpt lat="43.87627" lon="5.33475">
        <ele>204.9</ele>
        <time>2021-08-14T06:59:38Z</time>
      </trkpt>
      <trkpt lat="43.87525" lon="5.33426">
        <ele>204.2</ele>
        <time>2021-08-14T06:59:58Z</time>
      </trkpt>
      <trkpt lat="43.87415" lon="5.33353">
        <ele>204.6</ele>
        <time>2021-08-14T07:00:18Z</time>
      </trkpt>
      <trkpt lat="43.87329" lon="5.33257">
        <ele>206</ele>
        <time>2021-08-14T07:00:38Z</time>
      </trkpt>
      <trkpt lat="43.8726" lon="5.33126">
        <ele>204.6</ele>
        <time>2021-08-14T07:00:58Z</time>
      </trkpt>
      <trkpt lat="43.87214" lon="5.32972">
        <ele>205.8</ele>
        <time>2021-08-14T07:01:18Z</time>
      </trkpt>
      <trkpt lat="43.87192" lon="5.32817">
        <ele>203.6</ele>
        <time>2021-08-14T07:01:38Z</time>
      </trkpt>
      <trkpt lat="43.87176" lon="5.32684">
        <ele>201.5</ele>
        <time>2021-08-14T07:01:53Z</time>
      </trkpt>
      <trkpt lat="43.87151" lon="5.32553">
        <ele>198.9</ele>
        <time>2021-08-14T07:02:08Z</time>
      </trkpt>
      <trkpt lat="43.87105" lon="5.32441">
        <ele>194.3</ele>
        <time>2021-08-14T07:02:23Z</time>
      </trkpt>
      <trkpt lat="43.8701" lon="5.32339">
        <ele>190.6</ele>
        <time>2021-08-14T07:02:43Z</time>
      </trkpt>
      <trkpt lat="43.86915" lon="5.32286">
        <ele>189.2</ele>
        <time>2021-08-14T07:02:58Z</time>
      </trkpt>
      <trkpt lat="43.86815" lon="5.32232">
        <ele>186.7</ele>
        <time>2021-08-14T07:03:13Z</time>
      </trkpt>
      <trkpt lat="43.8672" lon="5.32143">
        <ele>184.1</ele>
        <time>2021-08-14T07:03:28Z</time>
      </trkpt>
      <trkpt lat="43.86642" lon="5.32048">
        <ele>181</ele>
        <time>2021-08-14T07:03:43Z</time>
      </trkpt>
      <trkpt lat="43.86571" lon="5.31932">
        <ele>180.2</ele>
        <time>2021-08-14T07:03:58Z</time>
      </trkpt>
      <trkpt lat="43.86525" lon="5.31815">
        <ele>178.8</ele>
        <time>2021-08-14T07:04:13Z</time>
      </trkpt>
      <trkpt lat="43.86504" lon="5.3166">
        <ele>176.7</ele>
        <time>2021-08-14T07:04:33Z</time>
      </trkpt>
      <trkpt lat="43.86524" lon="5.31503">
        <ele>175</ele>
        <time>2021-08-14T07:04:48Z</time>
      </trkpt>
      <trkpt lat="43.86545" lon="5.3136">
        <ele>173.6</ele>
        <time>2021-08-14T07:05:03Z</time>
      </trkpt>
      <trkpt lat="43.86542" lon="5.31212">
        <ele>172.4</ele>
        <time>2021-08-14T07:05:18Z</time>
      </trkpt>
      <trkpt lat="43.86512" lon="5.31062">
        <ele>174.3</ele>
        <time>2021-08-14T07:05:33Z</time>
      </trkpt>
      <trkpt lat="43.8646" lon="5.30945">
        <ele>176.8</ele>
        <time>2021-08-14T07:05:48Z</time>
      </trkpt>
      <trkpt lat="43.86384" lon="5.30858">
        <ele>178</ele>
        <time>2021-08-14T07:06:03Z</time>
      </trkpt>
      <trkpt lat="43.863" lon="5.3077">
        <ele>170.7</ele>
        <time>2021-08-14T07:06:18Z</time>
      </trkpt>
      <trkpt lat="43.86354" lon="5.30653">
        <ele>165.4</ele>
        <time>2021-08-14T07:06:58Z</time>
      </trkpt>
      <trkpt lat="43.86251" lon="5.30645">
        <ele>170.8</ele>
        <time>2021-08-14T07:08:18Z</time>
      </trkpt>
      <trkpt lat="43.86162" lon="5.30607">
        <ele>175.5</ele>
        <time>2021-08-14T07:08:49Z</time>
      </trkpt>
      <trkpt lat="43.8607" lon="5.30599">
        <ele>182.4</ele>
        <time>2021-08-14T07:10:33Z</time>
      </trkpt>
      <trkpt lat="43.86014" lon="5.30472">
        <ele>181.7</ele>
        <time>2021-08-14T07:10:53Z</time>
      </trkpt>
      <trkpt lat="43.85974" lon="5.3033">
        <ele>180.1</ele>
        <time>2021-08-14T07:11:08Z</time>
      </trkpt>
      <trkpt lat="43.85932" lon="5.30182">
        <ele>180.2</ele>
        <time>2021-08-14T07:11:23Z</time>
      </trkpt>
      <trkpt lat="43.85898" lon="5.30055">
        <ele>181</ele>
        <time>2021-08-14T07:11:38Z</time>
      </trkpt>
      <trkpt lat="43.85862" lon="5.29919">
        <ele>181.9</ele>
        <time>2021-08-14T07:11:53Z</time>
      </trkpt>
      <trkpt lat="43.85832" lon="5.29797">
        <ele>182.5</ele>
        <time>2021-08-14T07:12:08Z</time>
      </trkpt>
      <trkpt lat="43.85805" lon="5.29631">
        <ele>179.9</ele>
        <time>2021-08-14T07:12:28Z</time>
      </trkpt>
      <trkpt lat="43.85785" lon="5.29499">
        <ele>178.7</ele>
        <time>2021-08-14T07:12:43Z</time>
      </trkpt>
      <trkpt lat="43.85758" lon="5.29346">
        <ele>178.3</ele>
        <time>2021-08-14T07:12:58Z</time>
      </trkpt>
      <trkpt lat="43.85736" lon="5.29199">
        <ele>174.7</ele>
        <time>2021-08-14T07:13:13Z</time>
      </trkpt>
      <trkpt lat="43.85715" lon="5.29049">
        <ele>172.9</ele>
        <time>2021-08-14T07:13:28Z</time>
      </trkpt>
      <trkpt lat="43.85692" lon="5.28909">
        <ele>168.7</ele>
        <time>2021-08-14T07:13:43Z</time>
      </trkpt>
      <trkpt lat="43.85665" lon="5.28746">
        <ele>158.4</ele>
        <time>2021-08-14T07:14:08Z</time>
      </trkpt>
      <trkpt lat="43.85647" lon="5.28608">
        <ele>152.6</ele>
        <time>2021-08-14T07:14:23Z</time>
      </trkpt>
      <trkpt lat="43.85621" lon="5.28449">
        <ele>147.3</ele>
        <time>2021-08-14T07:14:43Z</time>
      </trkpt>
      <trkpt lat="43.85596" lon="5.28294">
        <ele>148.8</ele>
        <time>2021-08-14T07:15:03Z</time>
      </trkpt>
      <trkpt lat="43.85572" lon="5.2817">
        <ele>149.7</ele>
        <time>2021-08-14T07:15:18Z</time>
      </trkpt>
      <trkpt lat="43.85551" lon="5.28043">
        <ele>149.3</ele>
        <time>2021-08-14T07:15:33Z</time>
      </trkpt>
      <trkpt lat="43.85527" lon="5.27911">
        <ele>149.1</ele>
        <time>2021-08-14T07:15:48Z</time>
      </trkpt>
      <trkpt lat="43.85507" lon="5.27777">
        <ele>148.7</ele>
        <time>2021-08-14T07:16:03Z</time>
      </trkpt>
      <trkpt lat="43.85488" lon="5.27644">
        <ele>148</ele>
        <time>2021-08-14T07:16:18Z</time>
      </trkpt>
      <trkpt lat="43.85466" lon="5.27521">
        <ele>148.3</ele>
        <time>2021-08-14T07:16:33Z</time>
      </trkpt>
      <trkpt lat="43.85427" lon="5.27399">
        <ele>151.2</ele>
        <time>2021-08-14T07:16:58Z</time>
      </trkpt>
      <trkpt lat="43.8539" lon="5.27278">
        <ele>151.5</ele>
        <time>2021-08-14T07:33:23Z</time>
      </trkpt>
      <trkpt lat="43.85396" lon="5.27139">
        <ele>151.6</ele>
        <time>2021-08-14T07:33:53Z</time>
      </trkpt>
      <trkpt lat="43.85376" lon="5.27004">
        <ele>152</ele>
        <time>2021-08-14T07:34:18Z</time>
      </trkpt>
      <trkpt lat="43.8535" lon="5.26859">
        <ele>154.2</ele>
        <time>2021-08-14T07:34:43Z</time>
      </trkpt>
      <trkpt lat="43.85336" lon="5.26729">
        <ele>156.1</ele>
        <time>2021-08-14T07:35:03Z</time>
      </trkpt>
      <trkpt lat="43.85319" lon="5.26599">
        <ele>157.9</ele>
        <time>2021-08-14T07:35:18Z</time>
      </trkpt>
      <trkpt lat="43.85297" lon="5.26462">
        <ele>160</ele>
        <time>2021-08-14T07:35:33Z</time>
      </trkpt>
      <trkpt lat="43.85269" lon="5.26322">
        <ele>160.8</ele>
        <time>2021-08-14T07:35:48Z</time>
      </trkpt>
      <trkpt lat="43.85242" lon="5.26185">
        <ele>162.3</ele>
        <time>2021-08-14T07:36:03Z</time>
      </trkpt>
      <trkpt lat="43.85219" lon="5.26062">
        <ele>164.6</ele>
        <time>2021-08-14T07:36:18Z</time>
      </trkpt>
      <trkpt lat="43.85195" lon="5.25927">
        <ele>167.8</ele>
        <time>2021-08-14T07:36:33Z</time>
      </trkpt>
      <trkpt lat="43.85174" lon="5.25794">
        <ele>170.9</ele>
        <time>2021-08-14T07:36:48Z</time>
      </trkpt>
      <trkpt lat="43.85165" lon="5.25652">
        <ele>173.5</ele>
        <time>2021-08-14T07:37:13Z</time>
      </trkpt>
      <trkpt lat="43.85164" lon="5.25494">
        <ele>174.9</ele>
        <time>2021-08-14T07:37:33Z</time>
      </trkpt>
      <trkpt lat="43.85182" lon="5.25369">
        <ele>177.1</ele>
        <time>2021-08-14T07:37:48Z</time>
      </trkpt>
      <trkpt lat="43.85203" lon="5.25239">
        <ele>179.3</ele>
        <time>2021-08-14T07:38:03Z</time>
      </trkpt>
      <trkpt lat="43.85227" lon="5.25113">
        <ele>181.1</ele>
        <time>2021-08-14T07:38:18Z</time>
      </trkpt>
      <trkpt lat="43.85261" lon="5.24998">
        <ele>181.8</ele>
        <time>2021-08-14T07:38:33Z</time>
      </trkpt>
      <trkpt lat="43.85284" lon="5.24869">
        <ele>183.4</ele>
        <time>2021-08-14T07:38:48Z</time>
      </trkpt>
      <trkpt lat="43.85309" lon="5.24733">
        <ele>185.3</ele>
        <time>2021-08-14T07:39:03Z</time>
      </trkpt>
      <trkpt lat="43.85334" lon="5.24601">
        <ele>187.2</ele>
        <time>2021-08-14T07:39:18Z</time>
      </trkpt>
      <trkpt lat="43.85353" lon="5.2447">
        <ele>189.8</ele>
        <time>2021-08-14T07:39:33Z</time>
      </trkpt>
      <trkpt lat="43.85374" lon="5.24317">
        <ele>190.2</ele>
        <time>2021-08-14T07:39:48Z</time>
      </trkpt>
      <trkpt lat="43.85393" lon="5.24186">
        <ele>190.2</ele>
        <time>2021-08-14T07:40:03Z</time>
      </trkpt>
      <trkpt lat="43.85418" lon="5.24054">
        <ele>190.8</ele>
        <time>2021-08-14T07:40:18Z</time>
      </trkpt>
      <trkpt lat="43.8545" lon="5.23905">
        <ele>185.9</ele>
        <time>2021-08-14T07:40:43Z</time>
      </trkpt>
      <trkpt lat="43.8548" lon="5.23778">
        <ele>184.6</ele>
        <time>2021-08-14T07:40:58Z</time>
      </trkpt>
      <trkpt lat="43.85501" lon="5.2364">
        <ele>182.1</ele>
        <time>2021-08-14T07:41:13Z</time>
      </trkpt>
      <trkpt lat="43.85528" lon="5.23502">
        <ele>177.9</ele>
        <time>2021-08-14T07:41:28Z</time>
      </trkpt>
      <trkpt lat="43.85572" lon="5.23366">
        <ele>171.9</ele>
        <time>2021-08-14T07:41:43Z</time>
      </trkpt>
      <trkpt lat="43.85622" lon="5.23237">
        <ele>162.1</ele>
        <time>2021-08-14T07:41:58Z</time>
      </trkpt>
      <trkpt lat="43.85683" lon="5.23122">
        <ele>152.9</ele>
        <time>2021-08-14T07:42:13Z</time>
      </trkpt>
      <trkpt lat="43.85733" lon="5.23018">
        <ele>147</ele>
        <time>2021-08-14T07:42:28Z</time>
      </trkpt>
      <trkpt lat="43.85784" lon="5.22901">
        <ele>140.3</ele>
        <time>2021-08-14T07:42:43Z</time>
      </trkpt>
      <trkpt lat="43.85839" lon="5.22796">
        <ele>137.3</ele>
        <time>2021-08-14T07:42:58Z</time>
      </trkpt>
      <trkpt lat="43.85892" lon="5.22688">
        <ele>143.5</ele>
        <time>2021-08-14T07:45:40Z</time>
      </trkpt>
      <trkpt lat="43.85954" lon="5.22555">
        <ele>142.1</ele>
        <time>2021-08-14T07:46:00Z</time>
      </trkpt>
      <trkpt lat="43.86006" lon="5.22431">
        <ele>141.5</ele>
        <time>2021-08-14T07:46:15Z</time>
      </trkpt>
      <trkpt lat="43.86048" lon="5.22309">
        <ele>141.2</ele>
        <time>2021-08-14T07:46:30Z</time>
      </trkpt>
      <trkpt lat="43.86097" lon="5.22157">
        <ele>143.4</ele>
        <time>2021-08-14T07:46:45Z</time>
      </trkpt>
      <trkpt lat="43.86114" lon="5.2202">
        <ele>145.5</ele>
        <time>2021-08-14T07:47:00Z</time>
      </trkpt>
      <trkpt lat="43.86097" lon="5.21859">
        <ele>146.5</ele>
        <time>2021-08-14T07:47:15Z</time>
      </trkpt>
      <trkpt lat="43.86062" lon="5.21712">
        <ele>146.7</ele>
        <time>2021-08-14T07:47:30Z</time>
      </trkpt>
      <trkpt lat="43.86017" lon="5.2157">
        <ele>146</ele>
        <time>2021-08-14T07:47:45Z</time>
      </trkpt>
      <trkpt lat="43.85979" lon="5.21436">
        <ele>147.1</ele>
        <time>2021-08-14T07:48:00Z</time>
      </trkpt>
      <trkpt lat="43.85943" lon="5.21308">
        <ele>148.9</ele>
        <time>2021-08-14T07:48:15Z</time>
      </trkpt>
      <trkpt lat="43.85895" lon="5.21184">
        <ele>149.3</ele>
        <time>2021-08-14T07:48:35Z</time>
      </trkpt>
      <trkpt lat="43.85846" lon="5.21041">
        <ele>150.4</ele>
        <time>2021-08-14T07:48:50Z</time>
      </trkpt>
      <trkpt lat="43.85804" lon="5.20881">
        <ele>152.2</ele>
        <time>2021-08-14T07:49:05Z</time>
      </trkpt>
      <trkpt lat="43.85789" lon="5.2074">
        <ele>154.7</ele>
        <time>2021-08-14T07:49:20Z</time>
      </trkpt>
      <trkpt lat="43.85789" lon="5.2061">
        <ele>158</ele>
        <time>2021-08-14T07:49:40Z</time>
      </trkpt>
      <trkpt lat="43.85788" lon="5.2046">
        <ele>155.4</ele>
        <time>2021-08-14T07:50:20Z</time>
      </trkpt>
      <trkpt lat="43.85773" lon="5.20329">
        <ele>152.2</ele>
        <time>2021-08-14T07:50:35Z</time>
      </trkpt>
      <trkpt lat="43.85829" lon="5.20229">
        <ele>140.5</ele>
        <time>2021-08-14T07:51:52Z</time>
      </trkpt>
      <trkpt lat="43.85868" lon="5.20109">
        <ele>141.6</ele>
        <time>2021-08-14T07:52:12Z</time>
      </trkpt>
      <trkpt lat="43.85912" lon="5.19974">
        <ele>139.5</ele>
        <time>2021-08-14T07:52:32Z</time>
      </trkpt>
      <trkpt lat="43.85956" lon="5.19859">
        <ele>139.3</ele>
        <time>2021-08-14T07:52:47Z</time>
      </trkpt>
      <trkpt lat="43.85997" lon="5.19735">
        <ele>134.4</ele>
        <time>2021-08-14T07:53:07Z</time>
      </trkpt>
      <trkpt lat="43.85989" lon="5.19595">
        <ele>136.3</ele>
        <time>2021-08-14T07:53:27Z</time>
      </trkpt>
      <trkpt lat="43.85952" lon="5.19453">
        <ele>136.7</ele>
        <time>2021-08-14T07:53:47Z</time>
      </trkpt>
      <trkpt lat="43.85888" lon="5.19352">
        <ele>134.1</ele>
        <time>2021-08-14T07:54:12Z</time>
      </trkpt>
      <trkpt lat="43.85901" lon="5.19221">
        <ele>133.7</ele>
        <time>2021-08-14T07:54:43Z</time>
      </trkpt>
      <trkpt lat="43.85923" lon="5.19081">
        <ele>133.9</ele>
        <time>2021-08-14T07:54:58Z</time>
      </trkpt>
      <trkpt lat="43.85942" lon="5.18951">
        <ele>134.1</ele>
        <time>2021-08-14T07:55:13Z</time>
      </trkpt>
      <trkpt lat="43.85969" lon="5.1882">
        <ele>133</ele>
        <time>2021-08-14T07:55:28Z</time>
      </trkpt>
      <trkpt lat="43.85993" lon="5.18684">
        <ele>132.5</ele>
        <time>2021-08-14T07:55:43Z</time>
      </trkpt>
      <trkpt lat="43.86022" lon="5.18537">
        <ele>132.9</ele>
        <time>2021-08-14T07:55:58Z</time>
      </trkpt>
      <trkpt lat="43.86047" lon="5.18403">
        <ele>131.6</ele>
        <time>2021-08-14T07:56:13Z</time>
      </trkpt>
      <trkpt lat="43.86072" lon="5.18271">
        <ele>128.9</ele>
        <time>2021-08-14T07:56:28Z</time>
      </trkpt>
      <trkpt lat="43.86099" lon="5.18134">
        <ele>126.4</ele>
        <time>2021-08-14T07:56:43Z</time>
      </trkpt>
      <trkpt lat="43.86123" lon="5.18009">
        <ele>124.3</ele>
        <time>2021-08-14T07:56:58Z</time>
      </trkpt>
      <trkpt lat="43.86141" lon="5.17883">
        <ele>121.4</ele>
        <time>2021-08-14T07:57:13Z</time>
      </trkpt>
      <trkpt lat="43.86163" lon="5.17758">
        <ele>119.1</ele>
        <time>2021-08-14T07:57:28Z</time>
      </trkpt>
      <trkpt lat="43.86191" lon="5.17605">
        <ele>116.3</ele>
        <time>2021-08-14T07:57:48Z</time>
      </trkpt>
      <trkpt lat="43.86218" lon="5.17479">
        <ele>115</ele>
        <time>2021-08-14T07:58:03Z</time>
      </trkpt>
      <trkpt lat="43.8624" lon="5.17356">
        <ele>114.9</ele>
        <time>2021-08-14T07:58:18Z</time>
      </trkpt>
      <trkpt lat="43.86269" lon="5.17221">
        <ele>115.3</ele>
        <time>2021-08-14T07:58:33Z</time>
      </trkpt>
      <trkpt lat="43.86298" lon="5.17093">
        <ele>115.6</ele>
        <time>2021-08-14T07:58:48Z</time>
      </trkpt>
      <trkpt lat="43.86321" lon="5.16972">
        <ele>117</ele>
        <time>2021-08-14T07:59:03Z</time>
      </trkpt>
      <trkpt lat="43.86343" lon="5.16846">
        <ele>118.1</ele>
        <time>2021-08-14T07:59:18Z</time>
      </trkpt>
      <trkpt lat="43.8637" lon="5.1672">
        <ele>122.7</ele>
        <time>2021-08-14T07:59:33Z</time>
      </trkpt>
      <trkpt lat="43.86393" lon="5.16592">
        <ele>121.9</ele>
        <time>2021-08-14T07:59:48Z</time>
      </trkpt>
      <trkpt lat="43.86419" lon="5.16468">
        <ele>122.9</ele>
        <time>2021-08-14T08:00:03Z</time>
      </trkpt>
      <trkpt lat="43.86444" lon="5.16341">
        <ele>125.8</ele>
        <time>2021-08-14T08:00:18Z</time>
      </trkpt>
      <trkpt lat="43.8647" lon="5.16215">
        <ele>126.5</ele>
        <time>2021-08-14T08:00:33Z</time>
      </trkpt>
      <trkpt lat="43.86492" lon="5.16086">
        <ele>127.5</ele>
        <time>2021-08-14T08:00:48Z</time>
      </trkpt>
      <trkpt lat="43.8652" lon="5.15948">
        <ele>120.9</ele>
        <time>2021-08-14T08:01:03Z</time>
      </trkpt>
      <trkpt lat="43.8655" lon="5.15813">
        <ele>123.8</ele>
        <time>2021-08-14T08:01:18Z</time>
      </trkpt>
      <trkpt lat="43.86574" lon="5.15677">
        <ele>126.6</ele>
        <time>2021-08-14T08:01:33Z</time>
      </trkpt>
      <trkpt lat="43.86602" lon="5.15527">
        <ele>126.8</ele>
        <time>2021-08-14T08:01:48Z</time>
      </trkpt>
      <trkpt lat="43.86629" lon="5.15384">
        <ele>128.5</ele>
        <time>2021-08-14T08:02:03Z</time>
      </trkpt>
      <trkpt lat="43.86655" lon="5.15249">
        <ele>125.3</ele>
        <time>2021-08-14T08:02:18Z</time>
      </trkpt>
      <trkpt lat="43.86678" lon="5.1512">
        <ele>126.4</ele>
        <time>2021-08-14T08:02:33Z</time>
      </trkpt>
      <trkpt lat="43.86692" lon="5.14974">
        <ele>125.2</ele>
        <time>2021-08-14T08:02:53Z</time>
      </trkpt>
      <trkpt lat="43.86704" lon="5.14831">
        <ele>124.2</ele>
        <time>2021-08-14T08:03:13Z</time>
      </trkpt>
      <trkpt lat="43.86706" lon="5.14685">
        <ele>122.8</ele>
        <time>2021-08-14T08:03:33Z</time>
      </trkpt>
      <trkpt lat="43.86722" lon="5.14523">
        <ele>121.5</ele>
        <time>2021-08-14T08:03:58Z</time>
      </trkpt>
      <trkpt lat="43.86728" lon="5.14376">
        <ele>119.9</ele>
        <time>2021-08-14T08:04:18Z</time>
      </trkpt>
      <trkpt lat="43.86738" lon="5.14248">
        <ele>124.8</ele>
        <time>2021-08-14T08:04:43Z</time>
      </trkpt>
      <trkpt lat="43.86736" lon="5.1412">
        <ele>133.9</ele>
        <time>2021-08-14T08:05:30Z</time>
      </trkpt>
      <trkpt lat="43.8674" lon="5.13987">
        <ele>132.8</ele>
        <time>2021-08-14T08:05:55Z</time>
      </trkpt>
      <trkpt lat="43.86735" lon="5.13835">
        <ele>131.2</ele>
        <time>2021-08-14T08:06:20Z</time>
      </trkpt>
      <trkpt lat="43.86734" lon="5.13702">
        <ele>121.1</ele>
        <time>2021-08-14T08:12:06Z</time>
      </trkpt>
      <trkpt lat="43.86713" lon="5.13545">
        <ele>120.3</ele>
        <time>2021-08-14T08:12:31Z</time>
      </trkpt>
      <trkpt lat="43.86695" lon="5.13417">
        <ele>118.5</ele>
        <time>2021-08-14T08:12:46Z</time>
      </trkpt>
      <trkpt lat="43.8667" lon="5.13292">
        <ele>116.4</ele>
        <time>2021-08-14T08:13:01Z</time>
      </trkpt>
      <trkpt lat="43.86641" lon="5.13153">
        <ele>112.4</ele>
        <time>2021-08-14T08:13:16Z</time>
      </trkpt>
      <trkpt lat="43.86608" lon="5.12991">
        <ele>110.4</ele>
        <time>2021-08-14T08:13:36Z</time>
      </trkpt>
      <trkpt lat="43.86583" lon="5.12865">
        <ele>107.3</ele>
        <time>2021-08-14T08:13:51Z</time>
      </trkpt>
      <trkpt lat="43.86552" lon="5.12729">
        <ele>102.1</ele>
        <time>2021-08-14T08:14:06Z</time>
      </trkpt>
      <trkpt lat="43.86523" lon="5.12598">
        <ele>96.5</ele>
        <time>2021-08-14T08:14:21Z</time>
      </trkpt>
      <trkpt lat="43.86488" lon="5.12439">
        <ele>92.8</ele>
        <time>2021-08-14T08:14:41Z</time>
      </trkpt>
      <trkpt lat="43.86455" lon="5.12289">
        <ele>96.3</ele>
        <time>2021-08-14T08:15:06Z</time>
      </trkpt>
      <trkpt lat="43.86424" lon="5.12135">
        <ele>96.9</ele>
        <time>2021-08-14T08:15:26Z</time>
      </trkpt>
      <trkpt lat="43.86396" lon="5.12002">
        <ele>97.9</ele>
        <time>2021-08-14T08:15:41Z</time>
      </trkpt>
      <trkpt lat="43.86368" lon="5.11875">
        <ele>99.1</ele>
        <time>2021-08-14T08:15:56Z</time>
      </trkpt>
      <trkpt lat="43.86308" lon="5.11728">
        <ele>96.4</ele>
        <time>2021-08-14T08:16:16Z</time>
      </trkpt>
      <trkpt lat="43.86249" lon="5.11619">
        <ele>93.1</ele>
        <time>2021-08-14T08:16:31Z</time>
      </trkpt>
      <trkpt lat="43.86172" lon="5.11543">
        <ele>91.6</ele>
        <time>2021-08-14T08:16:46Z</time>
      </trkpt>
      <trkpt lat="43.86065" lon="5.1148">
        <ele>91.5</ele>
        <time>2021-08-14T08:17:06Z</time>
      </trkpt>
      <trkpt lat="43.85952" lon="5.11427">
        <ele>90.2</ele>
        <time>2021-08-14T08:17:26Z</time>
      </trkpt>
      <trkpt lat="43.85845" lon="5.11361">
        <ele>95</ele>
        <time>2021-08-14T08:17:46Z</time>
      </trkpt>
      <trkpt lat="43.8576" lon="5.11257">
        <ele>98.6</ele>
        <time>2021-08-14T08:18:06Z</time>
      </trkpt>
      <trkpt lat="43.857" lon="5.11126">
        <ele>103.3</ele>
        <time>2021-08-14T08:18:26Z</time>
      </trkpt>
      <trkpt lat="43.85647" lon="5.10988">
        <ele>102.2</ele>
        <time>2021-08-14T08:18:51Z</time>
      </trkpt>
      <trkpt lat="43.85597" lon="5.10855">
        <ele>101.3</ele>
        <time>2021-08-14T08:19:16Z</time>
      </trkpt>
      <trkpt lat="43.85543" lon="5.10717">
        <ele>101.5</ele>
        <time>2021-08-14T08:19:36Z</time>
      </trkpt>
      <trkpt lat="43.85488" lon="5.10579">
        <ele>96.5</ele>
        <time>2021-08-14T08:19:56Z</time>
      </trkpt>
      <trkpt lat="43.8543" lon="5.10429">
        <ele>99.2</ele>
        <time>2021-08-14T08:20:16Z</time>
      </trkpt>
      <trkpt lat="43.85381" lon="5.10299">
        <ele>97.5</ele>
        <time>2021-08-14T08:20:36Z</time>
      </trkpt>
      <trkpt lat="43.85334" lon="5.10166">
        <ele>99.4</ele>
        <time>2021-08-14T08:21:06Z</time>
      </trkpt>
      <trkpt lat="43.85267" lon="5.10037">
        <ele>98.6</ele>
        <time>2021-08-14T08:21:26Z</time>
      </trkpt>
      <trkpt lat="43.85197" lon="5.09943">
        <ele>98.6</ele>
        <time>2021-08-14T08:21:41Z</time>
      </trkpt>
      <trkpt lat="43.85121" lon="5.09844">
        <ele>94.3</ele>
        <time>2021-08-14T08:21:56Z</time>
      </trkpt>
      <trkpt lat="43.85055" lon="5.09751">
        <ele>100.7</ele>
        <time>2021-08-14T08:22:11Z</time>
      </trkpt>
      <trkpt lat="43.84996" lon="5.09638">
        <ele>100</ele>
        <time>2021-08-14T08:22:36Z</time>
      </trkpt>
      <trkpt lat="43.84957" lon="5.09499">
        <ele>100.9</ele>
        <time>2021-08-14T08:22:56Z</time>
      </trkpt>
      <trkpt lat="43.84948" lon="5.09372">
        <ele>101.4</ele>
        <time>2021-08-14T08:23:11Z</time>
      </trkpt>
      <trkpt lat="43.84951" lon="5.09218">
        <ele>101.9</ele>
        <time>2021-08-14T08:23:26Z</time>
      </trkpt>
      <trkpt lat="43.84962" lon="5.09054">
        <ele>103.3</ele>
        <time>2021-08-14T08:23:41Z</time>
      </trkpt>
      <trkpt lat="43.84981" lon="5.08903">
        <ele>103.7</ele>
        <time>2021-08-14T08:23:56Z</time>
      </trkpt>
      <trkpt lat="43.84999" lon="5.08754">
        <ele>102</ele>
        <time>2021-08-14T08:24:11Z</time>
      </trkpt>
      <trkpt lat="43.84997" lon="5.08616">
        <ele>99.2</ele>
        <time>2021-08-14T08:24:26Z</time>
      </trkpt>
      <trkpt lat="43.84976" lon="5.0849">
        <ele>97.3</ele>
        <time>2021-08-14T08:24:41Z</time>
      </trkpt>
      <trkpt lat="43.84925" lon="5.08331">
        <ele>91.8</ele>
        <time>2021-08-14T08:24:56Z</time>
      </trkpt>
      <trkpt lat="43.84859" lon="5.08198">
        <ele>92.7</ele>
        <time>2021-08-14T08:25:11Z</time>
      </trkpt>
      <trkpt lat="43.84779" lon="5.08094">
        <ele>91.1</ele>
        <time>2021-08-14T08:25:26Z</time>
      </trkpt>
      <trkpt lat="43.84702" lon="5.07996">
        <ele>91.7</ele>
        <time>2021-08-14T08:25:41Z</time>
      </trkpt>
      <trkpt lat="43.84625" lon="5.07891">
        <ele>90.1</ele>
        <time>2021-08-14T08:25:56Z</time>
      </trkpt>
      <trkpt lat="43.84555" lon="5.07799">
        <ele>87.2</ele>
        <time>2021-08-14T08:26:11Z</time>
      </trkpt>
      <trkpt lat="43.8448" lon="5.07708">
        <ele>84.7</ele>
        <time>2021-08-14T08:26:26Z</time>
      </trkpt>
      <trkpt lat="43.8439" lon="5.07595">
        <ele>84.5</ele>
        <time>2021-08-14T08:26:46Z</time>
      </trkpt>
      <trkpt lat="43.84308" lon="5.07512">
        <ele>80.6</ele>
        <time>2021-08-14T08:27:01Z</time>
      </trkpt>
      <trkpt lat="43.84234" lon="5.07402">
        <ele>79.4</ele>
        <time>2021-08-14T08:27:16Z</time>
      </trkpt>
      <trkpt lat="43.8416" lon="5.07304">
        <ele>79</ele>
        <time>2021-08-14T08:27:31Z</time>
      </trkpt>
      <trkpt lat="43.84087" lon="5.0721">
        <ele>77.2</ele>
        <time>2021-08-14T08:27:46Z</time>
      </trkpt>
      <trkpt lat="43.84002" lon="5.07113">
        <ele>75.8</ele>
        <time>2021-08-14T08:28:01Z</time>
      </trkpt>
      <trkpt lat="43.83916" lon="5.07001">
        <ele>76.5</ele>
        <time>2021-08-14T08:28:16Z</time>
      </trkpt>
      <trkpt lat="43.8384" lon="5.06901">
        <ele>79.3</ele>
        <time>2021-08-14T08:28:31Z</time>
      </trkpt>
      <trkpt lat="43.83761" lon="5.06804">
        <ele>82</ele>
        <time>2021-08-14T08:28:51Z</time>
      </trkpt>
      <trkpt lat="43.83687" lon="5.06712">
        <ele>81.9</ele>
        <time>2021-08-14T08:29:16Z</time>
      </trkpt>
      <trkpt lat="43.83612" lon="5.06611">
        <ele>81.7</ele>
        <time>2021-08-14T08:30:47Z</time>
      </trkpt>
      <trkpt lat="43.83534" lon="5.06511">
        <ele>81</ele>
        <time>2021-08-14T08:31:07Z</time>
      </trkpt>
      <trkpt lat="43.83455" lon="5.06404">
        <ele>76.9</ele>
        <time>2021-08-14T08:31:27Z</time>
      </trkpt>
      <trkpt lat="43.83379" lon="5.06282">
        <ele>76.7</ele>
        <time>2021-08-14T08:31:47Z</time>
      </trkpt>
      <trkpt lat="43.83326" lon="5.06175">
        <ele>76.7</ele>
        <time>2021-08-14T08:32:02Z</time>
      </trkpt>
      <trkpt lat="43.83263" lon="5.06049">
        <ele>81</ele>
        <time>2021-08-14T08:32:22Z</time>
      </trkpt>
      <trkpt lat="43.83211" lon="5.0594">
        <ele>81.3</ele>
        <time>2021-08-14T08:32:37Z</time>
      </trkpt>
      <trkpt lat="43.8316" lon="5.05831">
        <ele>83.4</ele>
        <time>2021-08-14T08:32:52Z</time>
      </trkpt>
      <trkpt lat="43.83095" lon="5.05692">
        <ele>79.8</ele>
        <time>2021-08-14T08:33:12Z</time>
      </trkpt>
      <trkpt lat="43.83036" lon="5.05567">
        <ele>81.7</ele>
        <time>2021-08-14T08:33:32Z</time>
      </trkpt>
      <trkpt lat="43.83097" lon="5.05469">
        <ele>77.4</ele>
        <time>2021-08-14T08:36:16Z</time>
      </trkpt>
      <trkpt lat="43.83181" lon="5.05399">
        <ele>76.7</ele>
        <time>2021-08-14T08:36:36Z</time>
      </trkpt>
      <trkpt lat="43.83245" lon="5.05294">
        <ele>77.1</ele>
        <time>2021-08-14T08:37:01Z</time>
      </trkpt>
      <trkpt lat="43.83216" lon="5.05154">
        <ele>77.3</ele>
        <time>2021-08-14T08:37:31Z</time>
      </trkpt>
      <trkpt lat="43.83235" lon="5.05004">
        <ele>79.7</ele>
        <time>2021-08-14T08:37:56Z</time>
      </trkpt>
      <trkpt lat="43.83275" lon="5.04891">
        <ele>80.2</ele>
        <time>2021-08-14T08:38:11Z</time>
      </trkpt>
      <trkpt lat="43.83329" lon="5.04781">
        <ele>80.4</ele>
        <time>2021-08-14T08:38:26Z</time>
      </trkpt>
      <trkpt lat="43.83391" lon="5.04679">
        <ele>80.7</ele>
        <time>2021-08-14T08:38:41Z</time>
      </trkpt>
      <trkpt lat="43.83451" lon="5.04578">
        <ele>80.2</ele>
        <time>2021-08-14T08:38:56Z</time>
      </trkpt>
      <trkpt lat="43.83507" lon="5.04461">
        <ele>79.7</ele>
        <time>2021-08-14T08:39:16Z</time>
      </trkpt>
      <trkpt lat="43.83587" lon="5.04405">
        <ele>79.1</ele>
        <time>2021-08-14T08:39:41Z</time>
      </trkpt>
      <trkpt lat="43.83678" lon="5.04387">
        <ele>78.5</ele>
        <time>2021-08-14T08:40:01Z</time>
      </trkpt>
      <trkpt lat="43.83768" lon="5.04336">
        <ele>75.9</ele>
        <time>2021-08-14T09:05:50Z</time>
      </trkpt>
      <trkpt lat="43.83722" lon="5.04222">
        <ele>75.3</ele>
        <time>2021-08-14T09:06:57Z</time>
      </trkpt>
      <trkpt lat="43.83666" lon="5.04099">
        <ele>74.7</ele>
        <time>2021-08-14T09:07:22Z</time>
      </trkpt>
      <trkpt lat="43.83563" lon="5.04064">
        <ele>73.3</ele>
        <time>2021-08-14T09:07:52Z</time>
      </trkpt>
      <trkpt lat="43.83471" lon="5.04079">
        <ele>73.3</ele>
        <time>2021-08-14T09:08:47Z</time>
      </trkpt>
      <trkpt lat="43.83374" lon="5.04107">
        <ele>73.5</ele>
        <time>2021-08-14T09:09:12Z</time>
      </trkpt>
      <trkpt lat="43.83279" lon="5.04031">
        <ele>70</ele>
        <time>2021-08-14T09:10:40Z</time>
      </trkpt>
      <trkpt lat="43.8319" lon="5.03973">
        <ele>68.9</ele>
        <time>2021-08-14T09:11:00Z</time>
      </trkpt>
      <trkpt lat="43.83115" lon="5.03867">
        <ele>68.8</ele>
        <time>2021-08-14T09:11:25Z</time>
      </trkpt>
      <trkpt lat="43.83047" lon="5.03741">
        <ele>70.2</ele>
        <time>2021-08-14T09:11:45Z</time>
      </trkpt>
      <trkpt lat="43.82975" lon="5.03611">
        <ele>74</ele>
        <time>2021-08-14T09:12:05Z</time>
      </trkpt>
      <trkpt lat="43.82906" lon="5.03496">
        <ele>74.5</ele>
        <time>2021-08-14T09:12:25Z</time>
      </trkpt>
      <trkpt lat="43.82825" lon="5.03397">
        <ele>76.4</ele>
        <time>2021-08-14T09:12:50Z</time>
      </trkpt>
      <trkpt lat="43.8277" lon="5.03275">
        <ele>73.1</ele>
        <time>2021-08-14T09:13:30Z</time>
      </trkpt>
      <trkpt lat="43.8272" lon="5.03165">
        <ele>76</ele>
        <time>2021-08-14T09:13:55Z</time>
      </trkpt>
      <trkpt lat="43.82664" lon="5.03062">
        <ele>76</ele>
        <time>2021-08-14T09:14:15Z</time>
      </trkpt>
      <trkpt lat="43.82595" lon="5.02948">
        <ele>85.2</ele>
        <time>2021-08-14T09:14:35Z</time>
      </trkpt>
      <trkpt lat="43.82534" lon="5.02838">
        <ele>87.7</ele>
        <time>2021-08-14T09:15:12Z</time>
      </trkpt>
      <trkpt lat="43.82476" lon="5.02733">
        <ele>88.1</ele>
        <time>2021-08-14T09:15:37Z</time>
      </trkpt>
      <trkpt lat="43.82408" lon="5.02629">
        <ele>90.5</ele>
        <time>2021-08-14T09:16:02Z</time>
      </trkpt>
      <trkpt lat="43.82329" lon="5.025">
        <ele>88.7</ele>
        <time>2021-08-14T09:16:22Z</time>
      </trkpt>
      <trkpt lat="43.82249" lon="5.02361">
        <ele>87.9</ele>
        <time>2021-08-14T09:16:37Z</time>
      </trkpt>
      <trkpt lat="43.82187" lon="5.02226">
        <ele>87</ele>
        <time>2021-08-14T09:16:52Z</time>
      </trkpt>
      <trkpt lat="43.8213" lon="5.02107">
        <ele>79</ele>
        <time>2021-08-14T09:17:22Z</time>
      </trkpt>
      <trkpt lat="43.82064" lon="5.0197">
        <ele>76.6</ele>
        <time>2021-08-14T09:18:01Z</time>
      </trkpt>
      <trkpt lat="43.81999" lon="5.0185">
        <ele>77.1</ele>
        <time>2021-08-14T09:18:16Z</time>
      </trkpt>
      <trkpt lat="43.81933" lon="5.01721">
        <ele>75.4</ele>
        <time>2021-08-14T09:18:36Z</time>
      </trkpt>
      <trkpt lat="43.81871" lon="5.01609">
        <ele>70.4</ele>
        <time>2021-08-14T09:18:56Z</time>
      </trkpt>
      <trkpt lat="43.81823" lon="5.01479">
        <ele>68.2</ele>
        <time>2021-08-14T09:19:16Z</time>
      </trkpt>
      <trkpt lat="43.81764" lon="5.0134">
        <ele>65.5</ele>
        <time>2021-08-14T09:19:36Z</time>
      </trkpt>
      <trkpt lat="43.81695" lon="5.01249">
        <ele>61.7</ele>
        <time>2021-08-14T09:20:09Z</time>
      </trkpt>
      <trkpt lat="43.81634" lon="5.01142">
        <ele>58.2</ele>
        <time>2021-08-14T09:20:29Z</time>
      </trkpt>
      <trkpt lat="43.8155" lon="5.01019">
        <ele>54.8</ele>
        <time>2021-08-14T09:20:49Z</time>
      </trkpt>
      <trkpt lat="43.81488" lon="5.00899">
        <ele>51.4</ele>
        <time>2021-08-14T09:21:04Z</time>
      </trkpt>
      <trkpt lat="43.81426" lon="5.00772">
        <ele>46.9</ele>
        <time>2021-08-14T09:21:24Z</time>
      </trkpt>
      <trkpt lat="43.8137" lon="5.00661">
        <ele>43.4</ele>
        <time>2021-08-14T09:21:39Z</time>
      </trkpt>
      <trkpt lat="43.81309" lon="5.00549">
        <ele>40</ele>
        <time>2021-08-14T09:21:54Z</time>
      </trkpt>
      <trkpt lat="43.81252" lon="5.00447">
        <ele>37.8</ele>
        <time>2021-08-14T09:22:09Z</time>
      </trkpt>
      <trkpt lat="43.81181" lon="5.00312">
        <ele>37</ele>
        <time>2021-08-14T09:22:34Z</time>
      </trkpt>
      <trkpt lat="43.81119" lon="5.00196">
        <ele>36.6</ele>
        <time>2021-08-14T09:22:49Z</time>
      </trkpt>
      <trkpt lat="43.81055" lon="5.00085">
        <ele>35.7</ele>
        <time>2021-08-14T09:23:04Z</time>
      </trkpt>
      <trkpt lat="43.80996" lon="4.99975">
        <ele>37</ele>
        <time>2021-08-14T09:23:19Z</time>
      </trkpt>
      <trkpt lat="43.80935" lon="4.99866">
        <ele>36.4</ele>
        <time>2021-08-14T09:23:34Z</time>
      </trkpt>
      <trkpt lat="43.80874" lon="4.99754">
        <ele>41.5</ele>
        <time>2021-08-14T09:23:49Z</time>
      </trkpt>
      <trkpt lat="43.80804" lon="4.99645">
        <ele>41.5</ele>
        <time>2021-08-14T09:24:14Z</time>
      </trkpt>
      <trkpt lat="43.80747" lon="4.99524">
        <ele>45.5</ele>
        <time>2021-08-14T09:25:11Z</time>
      </trkpt>
      <trkpt lat="43.80672" lon="4.99396">
        <ele>46.6</ele>
        <time>2021-08-14T09:25:31Z</time>
      </trkpt>
      <trkpt lat="43.80613" lon="4.99288">
        <ele>48.6</ele>
        <time>2021-08-14T09:25:46Z</time>
      </trkpt>
      <trkpt lat="43.80538" lon="4.99168">
        <ele>50.5</ele>
        <time>2021-08-14T09:26:06Z</time>
      </trkpt>
      <trkpt lat="43.80483" lon="4.99064">
        <ele>50.6</ele>
        <time>2021-08-14T09:26:21Z</time>
      </trkpt>
      <trkpt lat="43.80422" lon="4.9895">
        <ele>50</ele>
        <time>2021-08-14T09:26:36Z</time>
      </trkpt>
      <trkpt lat="43.80364" lon="4.98834">
        <ele>49.5</ele>
        <time>2021-08-14T09:26:57Z</time>
      </trkpt>
      <trkpt lat="43.80367" lon="4.9869">
        <ele>53.1</ele>
        <time>2021-08-14T09:27:27Z</time>
      </trkpt>
      <trkpt lat="43.80388" lon="4.98536">
        <ele>52.5</ele>
        <time>2021-08-14T09:27:47Z</time>
      </trkpt>
      <trkpt lat="43.80409" lon="4.98414">
        <ele>54</ele>
        <time>2021-08-14T09:28:02Z</time>
      </trkpt>
      <trkpt lat="43.80423" lon="4.98263">
        <ele>55.3</ele>
        <time>2021-08-14T09:28:22Z</time>
      </trkpt>
      <trkpt lat="43.80439" lon="4.98103">
        <ele>54.3</ele>
        <time>2021-08-14T09:28:42Z</time>
      </trkpt>
      <trkpt lat="43.80473" lon="4.97984">
        <ele>53.8</ele>
        <time>2021-08-14T09:28:57Z</time>
      </trkpt>
      <trkpt lat="43.80512" lon="4.97868">
        <ele>55.6</ele>
        <time>2021-08-14T09:29:12Z</time>
      </trkpt>
      <trkpt lat="43.80556" lon="4.97726">
        <ele>53.4</ele>
        <time>2021-08-14T09:29:32Z</time>
      </trkpt>
      <trkpt lat="43.80589" lon="4.97573">
        <ele>53.2</ele>
        <time>2021-08-14T09:29:52Z</time>
      </trkpt>
      <trkpt lat="43.80593" lon="4.97418">
        <ele>53.9</ele>
        <time>2021-08-14T09:30:12Z</time>
      </trkpt>
      <trkpt lat="43.80603" lon="4.97255">
        <ele>57</ele>
        <time>2021-08-14T09:30:32Z</time>
      </trkpt>
      <trkpt lat="43.80599" lon="4.97108">
        <ele>55.4</ele>
        <time>2021-08-14T09:30:52Z</time>
      </trkpt>
      <trkpt lat="43.80602" lon="4.96956">
        <ele>52.1</ele>
        <time>2021-08-14T09:31:12Z</time>
      </trkpt>
      <trkpt lat="43.80599" lon="4.9683">
        <ele>52.9</ele>
        <time>2021-08-14T09:31:27Z</time>
      </trkpt>
      <trkpt lat="43.80592" lon="4.96662">
        <ele>56.3</ele>
        <time>2021-08-14T09:31:47Z</time>
      </trkpt>
      <trkpt lat="43.80601" lon="4.96538">
        <ele>57.5</ele>
        <time>2021-08-14T09:32:02Z</time>
      </trkpt>
      <trkpt lat="43.80608" lon="4.96379">
        <ele>55.1</ele>
        <time>2021-08-14T09:32:22Z</time>
      </trkpt>
      <trkpt lat="43.80616" lon="4.96249">
        <ele>52.8</ele>
        <time>2021-08-14T09:32:37Z</time>
      </trkpt>
      <trkpt lat="43.80628" lon="4.96123">
        <ele>50.2</ele>
        <time>2021-08-14T09:32:52Z</time>
      </trkpt>
      <trkpt lat="43.80637" lon="4.95993">
        <ele>49.4</ele>
        <time>2021-08-14T09:33:07Z</time>
      </trkpt>
      <trkpt lat="43.80636" lon="4.95866">
        <ele>48.5</ele>
        <time>2021-08-14T09:33:22Z</time>
      </trkpt>
      <trkpt lat="43.80628" lon="4.95733">
        <ele>48.9</ele>
        <time>2021-08-14T09:33:37Z</time>
      </trkpt>
      <trkpt lat="43.80649" lon="4.95609">
        <ele>49.4</ele>
        <time>2021-08-14T09:33:52Z</time>
      </trkpt>
      <trkpt lat="43.80691" lon="4.9548">
        <ele>51.6</ele>
        <time>2021-08-14T09:34:17Z</time>
      </trkpt>
      <trkpt lat="43.80686" lon="4.95343">
        <ele>50.5</ele>
        <time>2021-08-14T09:34:37Z</time>
      </trkpt>
      <trkpt lat="43.80676" lon="4.95214">
        <ele>48.9</ele>
        <time>2021-08-14T09:34:57Z</time>
      </trkpt>
      <trkpt lat="43.80666" lon="4.95075">
        <ele>48.9</ele>
        <time>2021-08-14T09:35:17Z</time>
      </trkpt>
      <trkpt lat="43.80642" lon="4.94935">
        <ele>50.2</ele>
        <time>2021-08-14T09:35:59Z</time>
      </trkpt>
      <trkpt lat="43.80641" lon="4.948">
        <ele>49.4</ele>
        <time>2021-08-14T09:36:19Z</time>
      </trkpt>
      <trkpt lat="43.80641" lon="4.94642">
        <ele>49.4</ele>
        <time>2021-08-14T09:36:39Z</time>
      </trkpt>
      <trkpt lat="43.80634" lon="4.94486">
        <ele>44.9</ele>
        <time>2021-08-14T09:36:59Z</time>
      </trkpt>
      <trkpt lat="43.80622" lon="4.94356">
        <ele>43.6</ele>
        <time>2021-08-14T09:37:19Z</time>
      </trkpt>
      <trkpt lat="43.80619" lon="4.94203">
        <ele>40.9</ele>
        <time>2021-08-14T09:37:39Z</time>
      </trkpt>
      <trkpt lat="43.80623" lon="4.94038">
        <ele>39.6</ele>
        <time>2021-08-14T09:37:59Z</time>
      </trkpt>
      <trkpt lat="43.80623" lon="4.93884">
        <ele>39</ele>
        <time>2021-08-14T09:38:19Z</time>
      </trkpt>
      <trkpt lat="43.80571" lon="4.93759">
        <ele>37.1</ele>
        <time>2021-08-14T09:38:39Z</time>
      </trkpt>
      <trkpt lat="43.80565" lon="4.93604">
        <ele>35.8</ele>
        <time>2021-08-14T09:38:59Z</time>
      </trkpt>
      <trkpt lat="43.80538" lon="4.93439">
        <ele>35</ele>
        <time>2021-08-14T09:39:19Z</time>
      </trkpt>
      <trkpt lat="43.8054" lon="4.933">
        <ele>34.8</ele>
        <time>2021-08-14T09:39:34Z</time>
      </trkpt>
      <trkpt lat="43.80556" lon="4.93176">
        <ele>34.3</ele>
        <time>2021-08-14T09:39:49Z</time>
      </trkpt>
      <trkpt lat="43.80562" lon="4.93039">
        <ele>35.6</ele>
        <time>2021-08-14T09:40:04Z</time>
      </trkpt>
      <trkpt lat="43.80492" lon="4.92905">
        <ele>35.6</ele>
        <time>2021-08-14T09:40:24Z</time>
      </trkpt>
      <trkpt lat="43.80476" lon="4.92772">
        <ele>36.3</ele>
        <time>2021-08-14T09:40:39Z</time>
      </trkpt>
      <trkpt lat="43.80461" lon="4.92641">
        <ele>35.8</ele>
        <time>2021-08-14T09:40:54Z</time>
      </trkpt>
      <trkpt lat="43.80445" lon="4.9251">
        <ele>37.1</ele>
        <time>2021-08-14T09:41:09Z</time>
      </trkpt>
      <trkpt lat="43.80432" lon="4.92382">
        <ele>39.5</ele>
        <time>2021-08-14T09:41:24Z</time>
      </trkpt>
      <trkpt lat="43.80416" lon="4.92227">
        <ele>41.9</ele>
        <time>2021-08-14T09:41:44Z</time>
      </trkpt>
      <trkpt lat="43.80402" lon="4.9208">
        <ele>46</ele>
        <time>2021-08-14T09:42:04Z</time>
      </trkpt>
      <trkpt lat="43.80393" lon="4.91948">
        <ele>49.5</ele>
        <time>2021-08-14T09:42:19Z</time>
      </trkpt>
      <trkpt lat="43.80379" lon="4.91818">
        <ele>49.4</ele>
        <time>2021-08-14T09:42:34Z</time>
      </trkpt>
      <trkpt lat="43.80364" lon="4.91654">
        <ele>49.6</ele>
        <time>2021-08-14T09:42:54Z</time>
      </trkpt>
      <trkpt lat="43.80348" lon="4.91488">
        <ele>49.3</ele>
        <time>2021-08-14T09:43:14Z</time>
      </trkpt>
      <trkpt lat="43.8034" lon="4.91356">
        <ele>47.2</ele>
        <time>2021-08-14T09:43:29Z</time>
      </trkpt>
      <trkpt lat="43.80301" lon="4.91211">
        <ele>47.5</ele>
        <time>2021-08-14T09:43:49Z</time>
      </trkpt>
      <trkpt lat="43.80303" lon="4.91069">
        <ele>39.8</ele>
        <time>2021-08-14T09:46:43Z</time>
      </trkpt>
      <trkpt lat="43.80323" lon="4.90922">
        <ele>40.3</ele>
        <time>2021-08-14T09:47:03Z</time>
      </trkpt>
      <trkpt lat="43.80366" lon="4.90777">
        <ele>44.4</ele>
        <time>2021-08-14T09:47:23Z</time>
      </trkpt>
      <trkpt lat="43.80404" lon="4.90634">
        <ele>46.8</ele>
        <time>2021-08-14T09:47:43Z</time>
      </trkpt>
      <trkpt lat="43.80404" lon="4.90465">
        <ele>49.4</ele>
        <time>2021-08-14T09:48:03Z</time>
      </trkpt>
      <trkpt lat="43.80397" lon="4.90335">
        <ele>48</ele>
        <time>2021-08-14T09:48:18Z</time>
      </trkpt>
      <trkpt lat="43.80402" lon="4.90208">
        <ele>47.6</ele>
        <time>2021-08-14T09:48:33Z</time>
      </trkpt>
      <trkpt lat="43.80417" lon="4.90085">
        <ele>49</ele>
        <time>2021-08-14T09:48:48Z</time>
      </trkpt>
      <trkpt lat="43.8044" lon="4.89964">
        <ele>49.4</ele>
        <time>2021-08-14T09:49:03Z</time>
      </trkpt>
      <trkpt lat="43.80471" lon="4.89837">
        <ele>50</ele>
        <time>2021-08-14T09:49:18Z</time>
      </trkpt>
      <trkpt lat="43.80503" lon="4.89681">
        <ele>51</ele>
        <time>2021-08-14T09:49:38Z</time>
      </trkpt>
      <trkpt lat="43.80523" lon="4.89557">
        <ele>51.2</ele>
        <time>2021-08-14T09:49:53Z</time>
      </trkpt>
      <trkpt lat="43.80524" lon="4.89424">
        <ele>52.2</ele>
        <time>2021-08-14T09:50:08Z</time>
      </trkpt>
      <trkpt lat="43.80521" lon="4.89276">
        <ele>49.2</ele>
        <time>2021-08-14T09:50:28Z</time>
      </trkpt>
      <trkpt lat="43.80515" lon="4.89123">
        <ele>45.1</ele>
        <time>2021-08-14T09:50:48Z</time>
      </trkpt>
      <trkpt lat="43.8051" lon="4.88961">
        <ele>43.5</ele>
        <time>2021-08-14T09:51:08Z</time>
      </trkpt>
      <trkpt lat="43.80504" lon="4.88798">
        <ele>40.5</ele>
        <time>2021-08-14T09:51:28Z</time>
      </trkpt>
      <trkpt lat="43.805" lon="4.88642">
        <ele>40.9</ele>
        <time>2021-08-14T09:51:48Z</time>
      </trkpt>
      <trkpt lat="43.80491" lon="4.8848">
        <ele>37.8</ele>
        <time>2021-08-14T09:52:08Z</time>
      </trkpt>
      <trkpt lat="43.80489" lon="4.88352">
        <ele>38.5</ele>
        <time>2021-08-14T09:52:28Z</time>
      </trkpt>
      <trkpt lat="43.80391" lon="4.88317">
        <ele>40</ele>
        <time>2021-08-14T09:52:53Z</time>
      </trkpt>
      <trkpt lat="43.80289" lon="4.88282">
        <ele>40.5</ele>
        <time>2021-08-14T09:54:28Z</time>
      </trkpt>
      <trkpt lat="43.80184" lon="4.88255">
        <ele>42.6</ele>
        <time>2021-08-14T09:54:48Z</time>
      </trkpt>
      <trkpt lat="43.80069" lon="4.88227">
        <ele>43.7</ele>
        <time>2021-08-14T09:55:08Z</time>
      </trkpt>
      <trkpt lat="43.79953" lon="4.88196">
        <ele>43.2</ele>
        <time>2021-08-14T09:55:28Z</time>
      </trkpt>
      <trkpt lat="43.79852" lon="4.88166">
        <ele>41.9</ele>
        <time>2021-08-14T09:55:48Z</time>
      </trkpt>
      <trkpt lat="43.7976" lon="4.88138">
        <ele>37</ele>
        <time>2021-08-14T09:56:08Z</time>
      </trkpt>
      <trkpt lat="43.79644" lon="4.88095">
        <ele>31.8</ele>
        <time>2021-08-14T09:56:28Z</time>
      </trkpt>
      <trkpt lat="43.7953" lon="4.88056">
        <ele>30.5</ele>
        <time>2021-08-14T09:56:48Z</time>
      </trkpt>
      <trkpt lat="43.79416" lon="4.8802">
        <ele>30.3</ele>
        <time>2021-08-14T09:57:08Z</time>
      </trkpt>
      <trkpt lat="43.79354" lon="4.87924">
        <ele>31.5</ele>
        <time>2021-08-14T09:57:28Z</time>
      </trkpt>
      <trkpt lat="43.79266" lon="4.87848">
        <ele>32</ele>
        <time>2021-08-14T09:57:58Z</time>
      </trkpt>
      <trkpt lat="43.79162" lon="4.87795">
        <ele>32.5</ele>
        <time>2021-08-14T09:58:18Z</time>
      </trkpt>
      <trkpt lat="43.79078" lon="4.87693">
        <ele>38.8</ele>
        <time>2021-08-14T09:58:38Z</time>
      </trkpt>
      <trkpt lat="43.79013" lon="4.87592">
        <ele>48.7</ele>
        <time>2021-08-14T09:59:08Z</time>
      </trkpt>
      <trkpt lat="43.79037" lon="4.87468">
        <ele>51</ele>
        <time>2021-08-14T09:59:28Z</time>
      </trkpt>
      <trkpt lat="43.79069" lon="4.87322">
        <ele>51.1</ele>
        <time>2021-08-14T09:59:53Z</time>
      </trkpt>
      <trkpt lat="43.79002" lon="4.87229">
        <ele>49.6</ele>
        <time>2021-08-14T10:00:28Z</time>
      </trkpt>
      <trkpt lat="43.78892" lon="4.87191">
        <ele>51.1</ele>
        <time>2021-08-14T10:00:53Z</time>
      </trkpt>
      <trkpt lat="43.78794" lon="4.87159">
        <ele>52</ele>
        <time>2021-08-14T10:01:18Z</time>
      </trkpt>
      <trkpt lat="43.78698" lon="4.87118">
        <ele>56.6</ele>
        <time>2021-08-14T10:01:43Z</time>
      </trkpt>
      <trkpt lat="43.78611" lon="4.87075">
        <ele>58.9</ele>
        <time>2021-08-14T10:02:08Z</time>
      </trkpt>
      <trkpt lat="43.7855" lon="4.86973">
        <ele>64.4</ele>
        <time>2021-08-14T10:03:01Z</time>
      </trkpt>
      <trkpt lat="43.78597" lon="4.86862">
        <ele>65.5</ele>
        <time>2021-08-14T10:03:21Z</time>
      </trkpt>
      <trkpt lat="43.78666" lon="4.86741">
        <ele>64.8</ele>
        <time>2021-08-14T10:03:41Z</time>
      </trkpt>
      <trkpt lat="43.78734" lon="4.86626">
        <ele>59.1</ele>
        <time>2021-08-14T10:04:01Z</time>
      </trkpt>
      <trkpt lat="43.78785" lon="4.86503">
        <ele>57.8</ele>
        <time>2021-08-14T10:04:21Z</time>
      </trkpt>
      <trkpt lat="43.78834" lon="4.864">
        <ele>56.9</ele>
        <time>2021-08-14T10:04:36Z</time>
      </trkpt>
      <trkpt lat="43.78885" lon="4.86291">
        <ele>55.3</ele>
        <time>2021-08-14T10:04:51Z</time>
      </trkpt>
      <trkpt lat="43.78929" lon="4.86185">
        <ele>55.6</ele>
        <time>2021-08-14T10:05:06Z</time>
      </trkpt>
      <trkpt lat="43.78938" lon="4.86026">
        <ele>55.5</ele>
        <time>2021-08-14T10:05:26Z</time>
      </trkpt>
      <trkpt lat="43.78952" lon="4.85875">
        <ele>54.3</ele>
        <time>2021-08-14T10:05:46Z</time>
      </trkpt>
      <trkpt lat="43.78976" lon="4.85735">
        <ele>54.7</ele>
        <time>2021-08-14T10:06:06Z</time>
      </trkpt>
      <trkpt lat="43.78992" lon="4.85575">
        <ele>53.9</ele>
        <time>2021-08-14T10:06:31Z</time>
      </trkpt>
      <trkpt lat="43.79001" lon="4.85412">
        <ele>49.9</ele>
        <time>2021-08-14T10:06:51Z</time>
      </trkpt>
      <trkpt lat="43.78989" lon="4.8528">
        <ele>49.9</ele>
        <time>2021-08-14T10:07:06Z</time>
      </trkpt>
      <trkpt lat="43.78998" lon="4.85137">
        <ele>49.1</ele>
        <time>2021-08-14T10:07:26Z</time>
      </trkpt>
      <trkpt lat="43.79031" lon="4.85011">
        <ele>51.1</ele>
        <time>2021-08-14T10:07:51Z</time>
      </trkpt>
      <trkpt lat="43.79064" lon="4.84884">
        <ele>49.8</ele>
        <time>2021-08-14T10:09:17Z</time>
      </trkpt>
      <trkpt lat="43.79062" lon="4.84736">
        <ele>47.8</ele>
        <time>2021-08-14T10:09:37Z</time>
      </trkpt>
      <trkpt lat="43.79082" lon="4.84591">
        <ele>47.8</ele>
        <time>2021-08-14T10:09:57Z</time>
      </trkpt>
      <trkpt lat="43.7903" lon="4.84478">
        <ele>44.9</ele>
        <time>2021-08-14T10:10:27Z</time>
      </trkpt>
      <trkpt lat="43.7897" lon="4.84367">
        <ele>42.9</ele>
        <time>2021-08-14T10:10:47Z</time>
      </trkpt>
      <trkpt lat="43.78908" lon="4.84261">
        <ele>49.5</ele>
        <time>2021-08-14T10:11:07Z</time>
      </trkpt>
      <trkpt lat="43.78828" lon="4.84151">
        <ele>50.1</ele>
        <time>2021-08-14T10:11:32Z</time>
      </trkpt>
      <trkpt lat="43.78837" lon="4.84005">
        <ele>50.3</ele>
        <time>2021-08-14T10:11:57Z</time>
      </trkpt>
      <trkpt lat="43.7885" lon="4.83859">
        <ele>52.3</ele>
        <time>2021-08-14T10:12:22Z</time>
      </trkpt>
      <trkpt lat="43.78844" lon="4.8372">
        <ele>59.2</ele>
        <time>2021-08-14T10:12:52Z</time>
      </trkpt>
      <trkpt lat="43.78866" lon="4.83586">
        <ele>57.9</ele>
        <time>2021-08-14T10:13:12Z</time>
      </trkpt>
      <trkpt lat="43.7888" lon="4.83454">
        <ele>54.6</ele>
        <time>2021-08-14T10:13:32Z</time>
      </trkpt>
      <trkpt lat="43.78879" lon="4.83328">
        <ele>50.1</ele>
        <time>2021-08-14T10:15:51Z</time>
      </trkpt>
      <trkpt lat="43.78982" lon="4.83342">
        <ele>60.3</ele>
        <time>2021-08-14T10:45:44Z</time>
      </trkpt>
      <trkpt lat="43.79091" lon="4.83341">
        <ele>54.2</ele>
        <time>2021-08-14T10:46:09Z</time>
      </trkpt>
      <trkpt lat="43.79206" lon="4.83345">
        <ele>50.3</ele>
        <time>2021-08-14T10:46:29Z</time>
      </trkpt>
      <trkpt lat="43.79316" lon="4.83346">
        <ele>59.8</ele>
        <time>2021-08-14T10:47:01Z</time>
      </trkpt>
      <trkpt lat="43.79426" lon="4.83348">
        <ele>66.9</ele>
        <time>2021-08-14T10:47:21Z</time>
      </trkpt>
      <trkpt lat="43.79538" lon="4.8335">
        <ele>62.9</ele>
        <time>2021-08-14T10:47:41Z</time>
      </trkpt>
      <trkpt lat="43.79639" lon="4.83342">
        <ele>56.7</ele>
        <time>2021-08-14T10:48:01Z</time>
      </trkpt>
      <trkpt lat="43.79735" lon="4.83342">
        <ele>36</ele>
        <time>2021-08-14T10:49:31Z</time>
      </trkpt>
      <trkpt lat="43.79821" lon="4.83393">
        <ele>38.6</ele>
        <time>2021-08-14T10:49:56Z</time>
      </trkpt>
      <trkpt lat="43.79727" lon="4.83347">
        <ele>39.4</ele>
        <time>2021-08-14T10:51:55Z</time>
      </trkpt>
      <trkpt lat="43.79634" lon="4.83337">
        <ele>31.9</ele>
        <time>2021-08-14T11:00:42Z</time>
      </trkpt>
      <trkpt lat="43.79538" lon="4.83336">
        <ele>32.8</ele>
        <time>2021-08-14T11:01:07Z</time>
      </trkpt>
      <trkpt lat="43.79442" lon="4.83338">
        <ele>33.2</ele>
        <time>2021-08-14T11:01:32Z</time>
      </trkpt>
      <trkpt lat="43.79346" lon="4.83333">
        <ele>33.3</ele>
        <time>2021-08-14T11:01:57Z</time>
      </trkpt>
      <trkpt lat="43.79289" lon="4.83217">
        <ele>47.5</ele>
        <time>2021-08-14T11:02:54Z</time>
      </trkpt>
      <trkpt lat="43.79323" lon="4.83083">
        <ele>50.6</ele>
        <time>2021-08-14T11:03:14Z</time>
      </trkpt>
      <trkpt lat="43.79327" lon="4.82942">
        <ele>51.2</ele>
        <time>2021-08-14T11:03:34Z</time>
      </trkpt>
      <trkpt lat="43.79314" lon="4.82794">
        <ele>49.7</ele>
        <time>2021-08-14T11:03:59Z</time>
      </trkpt>
      <trkpt lat="43.79302" lon="4.82664">
        <ele>47.7</ele>
        <time>2021-08-14T11:04:19Z</time>
      </trkpt>
      <trkpt lat="43.79308" lon="4.82539">
        <ele>45.3</ele>
        <time>2021-08-14T11:04:39Z</time>
      </trkpt>
      <trkpt lat="43.79332" lon="4.82396">
        <ele>45.9</ele>
        <time>2021-08-14T11:04:59Z</time>
      </trkpt>
      <trkpt lat="43.79361" lon="4.82255">
        <ele>46.6</ele>
        <time>2021-08-14T11:05:19Z</time>
      </trkpt>
      <trkpt lat="43.79388" lon="4.82137">
        <ele>45.8</ele>
        <time>2021-08-14T11:05:34Z</time>
      </trkpt>
      <trkpt lat="43.79419" lon="4.82002">
        <ele>42.4</ele>
        <time>2021-08-14T11:05:54Z</time>
      </trkpt>
      <trkpt lat="43.79458" lon="4.81854">
        <ele>38.3</ele>
        <time>2021-08-14T11:06:14Z</time>
      </trkpt>
      <trkpt lat="43.79483" lon="4.81735">
        <ele>36.2</ele>
        <time>2021-08-14T11:06:29Z</time>
      </trkpt>
      <trkpt lat="43.79535" lon="4.8161">
        <ele>35.7</ele>
        <time>2021-08-14T11:06:54Z</time>
      </trkpt>
      <trkpt lat="43.79597" lon="4.81486">
        <ele>37.5</ele>
        <time>2021-08-14T11:07:14Z</time>
      </trkpt>
      <trkpt lat="43.79647" lon="4.81387">
        <ele>35.7</ele>
        <time>2021-08-14T11:07:29Z</time>
      </trkpt>
      <trkpt lat="43.797" lon="4.81273">
        <ele>36.8</ele>
        <time>2021-08-14T11:07:49Z</time>
      </trkpt>
      <trkpt lat="43.79741" lon="4.81156">
        <ele>37.4</ele>
        <time>2021-08-14T11:08:04Z</time>
      </trkpt>
      <trkpt lat="43.7978" lon="4.80996">
        <ele>36</ele>
        <time>2021-08-14T11:08:24Z</time>
      </trkpt>
      <trkpt lat="43.79797" lon="4.8085">
        <ele>30.4</ele>
        <time>2021-08-14T11:08:39Z</time>
      </trkpt>
      <trkpt lat="43.798" lon="4.80714">
        <ele>24.7</ele>
        <time>2021-08-14T11:08:54Z</time>
      </trkpt>
      <trkpt lat="43.79793" lon="4.80574">
        <ele>19.7</ele>
        <time>2021-08-14T11:09:14Z</time>
      </trkpt>
      <trkpt lat="43.79794" lon="4.80419">
        <ele>15.7</ele>
        <time>2021-08-14T11:09:39Z</time>
      </trkpt>
      <trkpt lat="43.79789" lon="4.80292">
        <ele>16.6</ele>
        <time>2021-08-14T11:09:54Z</time>
      </trkpt>
      <trkpt lat="43.79793" lon="4.80162">
        <ele>19.7</ele>
        <time>2021-08-14T11:10:14Z</time>
      </trkpt>
      <trkpt lat="43.7979" lon="4.80017">
        <ele>22.9</ele>
        <time>2021-08-14T11:10:39Z</time>
      </trkpt>
      <trkpt lat="43.79794" lon="4.79876">
        <ele>22.6</ele>
        <time>2021-08-14T11:10:59Z</time>
      </trkpt>
      <trkpt lat="43.79795" lon="4.79721">
        <ele>17.1</ele>
        <time>2021-08-14T11:11:19Z</time>
      </trkpt>
      <trkpt lat="43.79796" lon="4.79585">
        <ele>17.1</ele>
        <time>2021-08-14T11:11:44Z</time>
      </trkpt>
      <trkpt lat="43.79804" lon="4.79458">
        <ele>12.1</ele>
        <time>2021-08-14T14:02:26Z</time>
      </trkpt>
      <trkpt lat="43.79804" lon="4.79319">
        <ele>12.8</ele>
        <time>2021-08-14T14:02:46Z</time>
      </trkpt>
      <trkpt lat="43.79805" lon="4.79169">
        <ele>11.8</ele>
        <time>2021-08-14T14:03:06Z</time>
      </trkpt>
      <trkpt lat="43.79806" lon="4.79031">
        <ele>12</ele>
        <time>2021-08-14T14:03:26Z</time>
      </trkpt>
      <trkpt lat="43.79798" lon="4.78896">
        <ele>14</ele>
        <time>2021-08-14T14:03:46Z</time>
      </trkpt>
      <trkpt lat="43.79772" lon="4.7876">
        <ele>17.6</ele>
        <time>2021-08-14T14:04:06Z</time>
      </trkpt>
      <trkpt lat="43.79739" lon="4.78624">
        <ele>15.9</ele>
        <time>2021-08-14T14:04:26Z</time>
      </trkpt>
      <trkpt lat="43.79709" lon="4.78487">
        <ele>16</ele>
        <time>2021-08-14T14:04:46Z</time>
      </trkpt>
      <trkpt lat="43.79675" lon="4.78348">
        <ele>15.9</ele>
        <time>2021-08-14T14:05:06Z</time>
      </trkpt>
      <trkpt lat="43.7965" lon="4.78212">
        <ele>14.5</ele>
        <time>2021-08-14T14:05:26Z</time>
      </trkpt>
      <trkpt lat="43.79629" lon="4.7807">
        <ele>16</ele>
        <time>2021-08-14T14:05:46Z</time>
      </trkpt>
      <trkpt lat="43.79614" lon="4.77937">
        <ele>14.6</ele>
        <time>2021-08-14T14:06:06Z</time>
      </trkpt>
      <trkpt lat="43.79599" lon="4.77783">
        <ele>8.9</ele>
        <time>2021-08-14T14:06:26Z</time>
      </trkpt>
      <trkpt lat="43.79587" lon="4.77645">
        <ele>6</ele>
        <time>2021-08-14T14:06:41Z</time>
      </trkpt>
      <trkpt lat="43.79565" lon="4.77505">
        <ele>7</ele>
        <time>2021-08-14T14:06:56Z</time>
      </trkpt>
      <trkpt lat="43.79549" lon="4.77366">
        <ele>7.2</ele>
        <time>2021-08-14T14:07:11Z</time>
      </trkpt>
      <trkpt lat="43.79533" lon="4.77223">
        <ele>8.7</ele>
        <time>2021-08-14T14:07:31Z</time>
      </trkpt>
      <trkpt lat="43.79515" lon="4.77081">
        <ele>4.8</ele>
        <time>2021-08-14T14:07:46Z</time>
      </trkpt>
      <trkpt lat="43.79499" lon="4.76951">
        <ele>5.9</ele>
        <time>2021-08-14T14:08:01Z</time>
      </trkpt>
      <trkpt lat="43.79485" lon="4.76799">
        <ele>11.6</ele>
        <time>2021-08-14T14:08:21Z</time>
      </trkpt>
      <trkpt lat="43.7946" lon="4.76638">
        <ele>10.1</ele>
        <time>2021-08-14T14:08:41Z</time>
      </trkpt>
      <trkpt lat="43.79423" lon="4.7648">
        <ele>6.1</ele>
        <time>2021-08-14T14:09:01Z</time>
      </trkpt>
      <trkpt lat="43.79395" lon="4.76353">
        <ele>3.2</ele>
        <time>2021-08-14T14:09:16Z</time>
      </trkpt>
      <trkpt lat="43.79362" lon="4.7623">
        <ele>1.1</ele>
        <time>2021-08-14T14:09:31Z</time>
      </trkpt>
      <trkpt lat="43.79322" lon="4.76091">
        <ele>3.6</ele>
        <time>2021-08-14T14:09:51Z</time>
      </trkpt>
      <trkpt lat="43.79268" lon="4.75959">
        <ele>9.8</ele>
        <time>2021-08-14T14:10:11Z</time>
      </trkpt>
      <trkpt lat="43.79202" lon="4.75849">
        <ele>7.5</ele>
        <time>2021-08-14T14:10:31Z</time>
      </trkpt>
      <trkpt lat="43.79145" lon="4.75739">
        <ele>10.4</ele>
        <time>2021-08-14T14:10:56Z</time>
      </trkpt>
      <trkpt lat="43.79087" lon="4.75633">
        <ele>5.3</ele>
        <time>2021-08-14T14:11:16Z</time>
      </trkpt>
      <trkpt lat="43.79021" lon="4.75508">
        <ele>5.2</ele>
        <time>2021-08-14T14:11:41Z</time>
      </trkpt>
      <trkpt lat="43.78957" lon="4.75387">
        <ele>1.4</ele>
        <time>2021-08-14T14:12:06Z</time>
      </trkpt>
      <trkpt lat="43.78884" lon="4.75261">
        <ele>1.4</ele>
        <time>2021-08-14T14:12:26Z</time>
      </trkpt>
      <trkpt lat="43.7882" lon="4.75142">
        <ele>2.4</ele>
        <time>2021-08-14T14:12:46Z</time>
      </trkpt>
      <trkpt lat="43.7877" lon="4.75007">
        <ele>2.8</ele>
        <time>2021-08-14T14:13:06Z</time>
      </trkpt>
      <trkpt lat="43.78745" lon="4.74868">
        <ele>4</ele>
        <time>2021-08-14T14:13:26Z</time>
      </trkpt>
      <trkpt lat="43.78736" lon="4.74718">
        <ele>5.2</ele>
        <time>2021-08-14T14:13:46Z</time>
      </trkpt>
      <trkpt lat="43.78722" lon="4.74575">
        <ele>2.6</ele>
        <time>2021-08-14T14:14:11Z</time>
      </trkpt>
      <trkpt lat="43.78686" lon="4.74435">
        <ele>-2.2</ele>
        <time>2021-08-14T14:14:31Z</time>
      </trkpt>
      <trkpt lat="43.78624" lon="4.74297">
        <ele>-3.7</ele>
        <time>2021-08-14T14:14:51Z</time>
      </trkpt>
      <trkpt lat="43.78565" lon="4.74182">
        <ele>-0.4</ele>
        <time>2021-08-14T14:15:11Z</time>
      </trkpt>
      <trkpt lat="43.78511" lon="4.74057">
        <ele>2.6</ele>
        <time>2021-08-14T14:15:31Z</time>
      </trkpt>
      <trkpt lat="43.78413" lon="4.74002">
        <ele>4.4</ele>
        <time>2021-08-14T14:16:01Z</time>
      </trkpt>
      <trkpt lat="43.78368" lon="4.73888">
        <ele>7.6</ele>
        <time>2021-08-14T14:16:21Z</time>
      </trkpt>
      <trkpt lat="43.78337" lon="4.7376">
        <ele>7.6</ele>
        <time>2021-08-14T14:16:46Z</time>
      </trkpt>
      <trkpt lat="43.78308" lon="4.73634">
        <ele>7.3</ele>
        <time>2021-08-14T14:17:11Z</time>
      </trkpt>
      <trkpt lat="43.78256" lon="4.73522">
        <ele>8.3</ele>
        <time>2021-08-14T14:19:06Z</time>
      </trkpt>
      <trkpt lat="43.78199" lon="4.7342">
        <ele>7.5</ele>
        <time>2021-08-14T14:19:26Z</time>
      </trkpt>
      <trkpt lat="43.78173" lon="4.73278">
        <ele>7</ele>
        <time>2021-08-14T14:19:51Z</time>
      </trkpt>
      <trkpt lat="43.78167" lon="4.73126">
        <ele>9.2</ele>
        <time>2021-08-14T14:20:16Z</time>
      </trkpt>
      <trkpt lat="43.78185" lon="4.72995">
        <ele>11.5</ele>
        <time>2021-08-14T14:20:36Z</time>
      </trkpt>
      <trkpt lat="43.78238" lon="4.72856">
        <ele>12.2</ele>
        <time>2021-08-14T14:20:56Z</time>
      </trkpt>
      <trkpt lat="43.78287" lon="4.72722">
        <ele>10.8</ele>
        <time>2021-08-14T14:21:16Z</time>
      </trkpt>
      <trkpt lat="43.78336" lon="4.72591">
        <ele>7.5</ele>
        <time>2021-08-14T14:21:36Z</time>
      </trkpt>
      <trkpt lat="43.78379" lon="4.72464">
        <ele>8.1</ele>
        <time>2021-08-14T14:21:56Z</time>
      </trkpt>
      <trkpt lat="43.78437" lon="4.72333">
        <ele>8.5</ele>
        <time>2021-08-14T14:22:16Z</time>
      </trkpt>
      <trkpt lat="43.78485" lon="4.72198">
        <ele>9.3</ele>
        <time>2021-08-14T14:22:36Z</time>
      </trkpt>
      <trkpt lat="43.78525" lon="4.72073">
        <ele>10.5</ele>
        <time>2021-08-14T14:22:56Z</time>
      </trkpt>
      <trkpt lat="43.78588" lon="4.71951">
        <ele>11.1</ele>
        <time>2021-08-14T14:23:16Z</time>
      </trkpt>
      <trkpt lat="43.78686" lon="4.71877">
        <ele>11.3</ele>
        <time>2021-08-14T14:23:36Z</time>
      </trkpt>
      <trkpt lat="43.78769" lon="4.71802">
        <ele>9.3</ele>
        <time>2021-08-14T14:23:56Z</time>
      </trkpt>
      <trkpt lat="43.78863" lon="4.71725">
        <ele>6.1</ele>
        <time>2021-08-14T14:24:16Z</time>
      </trkpt>
      <trkpt lat="43.78941" lon="4.7166">
        <ele>5.1</ele>
        <time>2021-08-14T14:24:31Z</time>
      </trkpt>
      <trkpt lat="43.79024" lon="4.71573">
        <ele>6.5</ele>
        <time>2021-08-14T14:24:51Z</time>
      </trkpt>
      <trkpt lat="43.79085" lon="4.71458">
        <ele>4.5</ele>
        <time>2021-08-14T14:25:11Z</time>
      </trkpt>
      <trkpt lat="43.79142" lon="4.71359">
        <ele>5.8</ele>
        <time>2021-08-14T14:26:51Z</time>
      </trkpt>
      <trkpt lat="43.79204" lon="4.71244">
        <ele>5.5</ele>
        <time>2021-08-14T14:27:11Z</time>
      </trkpt>
      <trkpt lat="43.79271" lon="4.71127">
        <ele>2.7</ele>
        <time>2021-08-14T14:27:31Z</time>
      </trkpt>
      <trkpt lat="43.79311" lon="4.70983">
        <ele>-0.3</ele>
        <time>2021-08-14T14:27:51Z</time>
      </trkpt>
      <trkpt lat="43.79331" lon="4.70829">
        <ele>2.3</ele>
        <time>2021-08-14T14:28:11Z</time>
      </trkpt>
      <trkpt lat="43.79368" lon="4.70678">
        <ele>1.4</ele>
        <time>2021-08-14T14:28:31Z</time>
      </trkpt>
      <trkpt lat="43.79433" lon="4.70554">
        <ele>4.2</ele>
        <time>2021-08-14T14:28:51Z</time>
      </trkpt>
      <trkpt lat="43.79501" lon="4.7044">
        <ele>8.9</ele>
        <time>2021-08-14T14:29:11Z</time>
      </trkpt>
      <trkpt lat="43.79548" lon="4.70311">
        <ele>11.2</ele>
        <time>2021-08-14T14:29:31Z</time>
      </trkpt>
      <trkpt lat="43.79565" lon="4.70177">
        <ele>3.7</ele>
        <time>2021-08-14T14:29:51Z</time>
      </trkpt>
      <trkpt lat="43.79567" lon="4.70035">
        <ele>4</ele>
        <time>2021-08-14T14:30:11Z</time>
      </trkpt>
      <trkpt lat="43.79565" lon="4.69894">
        <ele>3.1</ele>
        <time>2021-08-14T14:30:31Z</time>
      </trkpt>
      <trkpt lat="43.79557" lon="4.69766">
        <ele>9.2</ele>
        <time>2021-08-14T14:30:51Z</time>
      </trkpt>
      <trkpt lat="43.79554" lon="4.69618">
        <ele>5.8</ele>
        <time>2021-08-14T14:31:16Z</time>
      </trkpt>
      <trkpt lat="43.79585" lon="4.695">
        <ele>1.1</ele>
        <time>2021-08-14T14:31:50Z</time>
      </trkpt>
      <trkpt lat="43.79612" lon="4.69367">
        <ele>-0.5</ele>
        <time>2021-08-14T14:32:10Z</time>
      </trkpt>
      <trkpt lat="43.79638" lon="4.69222">
        <ele>-0.8</ele>
        <time>2021-08-14T14:32:30Z</time>
      </trkpt>
      <trkpt lat="43.79675" lon="4.69068">
        <ele>4.3</ele>
        <time>2021-08-14T14:32:50Z</time>
      </trkpt>
      <trkpt lat="43.79722" lon="4.68926">
        <ele>6</ele>
        <time>2021-08-14T14:33:10Z</time>
      </trkpt>
      <trkpt lat="43.79763" lon="4.68782">
        <ele>5.2</ele>
        <time>2021-08-14T14:33:30Z</time>
      </trkpt>
      <trkpt lat="43.79794" lon="4.68636">
        <ele>5.8</ele>
        <time>2021-08-14T14:33:50Z</time>
      </trkpt>
      <trkpt lat="43.79819" lon="4.68481">
        <ele>6.5</ele>
        <time>2021-08-14T14:34:10Z</time>
      </trkpt>
      <trkpt lat="43.79838" lon="4.68358">
        <ele>8.2</ele>
        <time>2021-08-14T14:34:25Z</time>
      </trkpt>
      <trkpt lat="43.79857" lon="4.68208">
        <ele>8.1</ele>
        <time>2021-08-14T14:34:45Z</time>
      </trkpt>
      <trkpt lat="43.79883" lon="4.68057">
        <ele>5.1</ele>
        <time>2021-08-14T14:35:05Z</time>
      </trkpt>
      <trkpt lat="43.79934" lon="4.6792">
        <ele>2.4</ele>
        <time>2021-08-14T14:35:25Z</time>
      </trkpt>
      <trkpt lat="43.79993" lon="4.67796">
        <ele>-0.4</ele>
        <time>2021-08-14T14:35:45Z</time>
      </trkpt>
      <trkpt lat="43.80037" lon="4.67659">
        <ele>-1.3</ele>
        <time>2021-08-14T14:36:05Z</time>
      </trkpt>
      <trkpt lat="43.80057" lon="4.67512">
        <ele>1.6</ele>
        <time>2021-08-14T14:36:25Z</time>
      </trkpt>
      <trkpt lat="43.80057" lon="4.67355">
        <ele>1.9</ele>
        <time>2021-08-14T14:36:45Z</time>
      </trkpt>
      <trkpt lat="43.80064" lon="4.67203">
        <ele>4.1</ele>
        <time>2021-08-14T14:37:05Z</time>
      </trkpt>
      <trkpt lat="43.80111" lon="4.67063">
        <ele>3.5</ele>
        <time>2021-08-14T14:37:25Z</time>
      </trkpt>
      <trkpt lat="43.80159" lon="4.66942">
        <ele>1.4</ele>
        <time>2021-08-14T14:37:45Z</time>
      </trkpt>
      <trkpt lat="43.80188" lon="4.66808">
        <ele>-1.1</ele>
        <time>2021-08-14T14:38:05Z</time>
      </trkpt>
      <trkpt lat="43.80204" lon="4.66665">
        <ele>-0.5</ele>
        <time>2021-08-14T14:38:25Z</time>
      </trkpt>
      <trkpt lat="43.80187" lon="4.66522">
        <ele>4.2</ele>
        <time>2021-08-14T14:39:31Z</time>
      </trkpt>
      <trkpt lat="43.8021" lon="4.66396">
        <ele>2.3</ele>
        <time>2021-08-14T14:39:51Z</time>
      </trkpt>
      <trkpt lat="43.80265" lon="4.6629">
        <ele>-2</ele>
        <time>2021-08-14T14:45:26Z</time>
      </trkpt>
      <trkpt lat="43.80293" lon="4.66166">
        <ele>-5.6</ele>
        <time>2021-08-14T14:45:51Z</time>
      </trkpt>
      <trkpt lat="43.80326" lon="4.66032">
        <ele>-6.9</ele>
        <time>2021-08-14T14:46:21Z</time>
      </trkpt>
      <trkpt lat="43.80312" lon="4.65885">
        <ele>-2.7</ele>
        <time>2021-08-14T14:54:21Z</time>
      </trkpt>
      <trkpt lat="43.80292" lon="4.65754">
        <ele>-3.5</ele>
        <time>2021-08-14T14:55:18Z</time>
      </trkpt>
      <trkpt lat="43.80365" lon="4.65659">
        <ele>-2.6</ele>
        <time>2021-08-14T14:55:43Z</time>
      </trkpt>
      <trkpt lat="43.80446" lon="4.65567">
        <ele>-0.1</ele>
        <time>2021-08-14T14:56:26Z</time>
      </trkpt>
      <trkpt lat="43.80534" lon="4.65524">
        <ele>7.6</ele>
        <time>2021-08-14T14:56:51Z</time>
      </trkpt>
      <trkpt lat="43.80628" lon="4.65542">
        <ele>10.4</ele>
        <time>2021-08-14T14:59:36Z</time>
      </trkpt>
      <trkpt lat="43.80717" lon="4.65606">
        <ele>13.1</ele>
        <time>2021-08-14T15:00:19Z</time>
      </trkpt>
      <trkpt lat="43.80822" lon="4.65589">
        <ele>14.9</ele>
        <time>2021-08-14T15:00:44Z</time>
      </trkpt>
      <trkpt lat="43.80715" lon="4.65577">
        <ele>6.6</ele>
        <time>2021-08-14T15:15:04Z</time>
      </trkpt>
      <trkpt lat="43.8067" lon="4.65687">
        <ele>5.8</ele>
        <time>2021-08-14T15:15:39Z</time>
      </trkpt>
      <trkpt lat="43.8065" lon="4.65827">
        <ele>5</ele>
        <time>2021-08-14T15:16:21Z</time>
      </trkpt>
      <trkpt lat="43.80659" lon="4.65962">
        <ele>2.6</ele>
        <time>2021-08-14T15:16:51Z</time>
      </trkpt>
      <trkpt lat="43.80639" lon="4.65826">
        <ele>-0.9</ele>
        <time>2021-08-14T15:17:39Z</time>
      </trkpt>
      <trkpt lat="43.80674" lon="4.65708">
        <ele>-0.3</ele>
        <time>2021-08-14T15:17:59Z</time>
      </trkpt>
      <trkpt lat="43.80697" lon="4.65588">
        <ele>0.9</ele>
        <time>2021-08-14T15:18:19Z</time>
      </trkpt>
      <trkpt lat="43.80611" lon="4.65518">
        <ele>0.7</ele>
        <time>2021-08-14T15:18:49Z</time>
      </trkpt>
      <trkpt lat="43.80524" lon="4.65466">
        <ele>2.4</ele>
        <time>2021-08-14T15:19:24Z</time>
      </trkpt>
      <trkpt lat="43.80472" lon="4.6535">
        <ele>11.6</ele>
        <time>2021-08-14T15:20:04Z</time>
      </trkpt>
      <trkpt lat="43.80473" lon="4.65209">
        <ele>10.9</ele>
        <time>2021-08-14T15:20:34Z</time>
      </trkpt>
      <trkpt lat="43.8047" lon="4.6506">
        <ele>12.9</ele>
        <time>2021-08-14T15:20:59Z</time>
      </trkpt>
      <trkpt lat="43.80473" lon="4.6492">
        <ele>13.4</ele>
        <time>2021-08-14T15:21:19Z</time>
      </trkpt>
      <trkpt lat="43.80489" lon="4.64793">
        <ele>5</ele>
        <time>2021-08-14T15:21:49Z</time>
      </trkpt>
      <trkpt lat="43.80534" lon="4.64686">
        <ele>-4.5</ele>
        <time>2021-08-14T15:22:20Z</time>
      </trkpt>
      <trkpt lat="43.8055" lon="4.64547">
        <ele>-3.1</ele>
        <time>2021-08-14T15:50:05Z</time>
      </trkpt>
      <trkpt lat="43.80574" lon="4.64424">
        <ele>-2</ele>
        <time>2021-08-14T15:50:30Z</time>
      </trkpt>
      <trkpt lat="43.80595" lon="4.64298">
        <ele>-2.7</ele>
        <time>2021-08-14T15:50:55Z</time>
      </trkpt>
      <trkpt lat="43.80608" lon="4.64162">
        <ele>-2.3</ele>
        <time>2021-08-14T15:51:15Z</time>
      </trkpt>
      <trkpt lat="43.80633" lon="4.64011">
        <ele>-2</ele>
        <time>2021-08-14T15:51:40Z</time>
      </trkpt>
      <trkpt lat="43.80654" lon="4.63883">
        <ele>-6.5</ele>
        <time>2021-08-14T15:52:00Z</time>
      </trkpt>
      <trkpt lat="43.80755" lon="4.6384">
        <ele>-8.4</ele>
        <time>2021-08-14T15:52:25Z</time>
      </trkpt>
      <trkpt lat="43.80856" lon="4.63858">
        <ele>-6.2</ele>
        <time>2021-08-14T15:52:55Z</time>
      </trkpt>
      <trkpt lat="43.80947" lon="4.63868">
        <ele>-3.1</ele>
        <time>2021-08-14T15:53:31Z</time>
      </trkpt>
      <trkpt lat="43.81005" lon="4.63758">
        <ele>3.7</ele>
        <time>2021-08-14T15:54:17Z</time>
      </trkpt>
      <trkpt lat="43.8107" lon="4.63659">
        <ele>8</ele>
        <time>2021-08-14T15:54:42Z</time>
      </trkpt>
      <trkpt lat="43.81137" lon="4.63552">
        <ele>12.2</ele>
        <time>2021-08-14T15:55:12Z</time>
      </trkpt>
      <trkpt lat="43.81193" lon="4.63454">
        <ele>14.6</ele>
        <time>2021-08-14T15:55:37Z</time>
      </trkpt>
      <trkpt lat="43.81248" lon="4.63345">
        <ele>19.7</ele>
        <time>2021-08-14T15:56:07Z</time>
      </trkpt>
      <trkpt lat="43.81314" lon="4.63255">
        <ele>22.5</ele>
        <time>2021-08-14T15:56:27Z</time>
      </trkpt>
      <trkpt lat="43.81407" lon="4.6317">
        <ele>21.6</ele>
        <time>2021-08-14T15:56:47Z</time>
      </trkpt>
      <trkpt lat="43.81518" lon="4.6309">
        <ele>16</ele>
        <time>2021-08-14T15:57:02Z</time>
      </trkpt>
      <trkpt lat="43.81636" lon="4.63034">
        <ele>7.4</ele>
        <time>2021-08-14T15:57:17Z</time>
      </trkpt>
      <trkpt lat="43.81725" lon="4.62974">
        <ele>1</ele>
        <time>2021-08-14T15:57:32Z</time>
      </trkpt>
      <trkpt lat="43.81827" lon="4.62946">
        <ele>-3.4</ele>
        <time>2021-08-14T15:57:47Z</time>
      </trkpt>
      <trkpt lat="43.81943" lon="4.62924">
        <ele>-0.5</ele>
        <time>2021-08-14T15:58:02Z</time>
      </trkpt>
      <trkpt lat="43.82044" lon="4.62905">
        <ele>5.9</ele>
        <time>2021-08-14T15:58:22Z</time>
      </trkpt>
      <trkpt lat="43.82126" lon="4.62831">
        <ele>3.5</ele>
        <time>2021-08-14T15:59:18Z</time>
      </trkpt>
      <trkpt lat="43.8222" lon="4.62794">
        <ele>4.4</ele>
        <time>2021-08-14T15:59:38Z</time>
      </trkpt>
      <trkpt lat="43.82319" lon="4.62743">
        <ele>4.5</ele>
        <time>2021-08-14T15:59:58Z</time>
      </trkpt>
      <trkpt lat="43.82407" lon="4.62703">
        <ele>5.2</ele>
        <time>2021-08-14T16:00:13Z</time>
      </trkpt>
      <trkpt lat="43.82494" lon="4.62662">
        <ele>3.7</ele>
        <time>2021-08-14T16:00:28Z</time>
      </trkpt>
      <trkpt lat="43.82588" lon="4.62635">
        <ele>2.2</ele>
        <time>2021-08-14T16:00:48Z</time>
      </trkpt>
      <trkpt lat="43.82557" lon="4.62763">
        <ele>1</ele>
        <time>2021-08-14T16:02:26Z</time>
      </trkpt>
      <trkpt lat="43.82513" lon="4.62882">
        <ele>-1.3</ele>
        <time>2021-08-14T16:03:10Z</time>
      </trkpt>
      <trkpt lat="43.82452" lon="4.62984">
        <ele>-3.1</ele>
        <time>2021-08-14T16:03:40Z</time>
      </trkpt>
      <trkpt lat="43.82413" lon="4.631">
        <ele>-5.7</ele>
        <time>2021-08-14T16:04:16Z</time>
      </trkpt>
      <trkpt lat="43.82377" lon="4.63216">
        <ele>-7.7</ele>
        <time>2021-08-14T16:04:41Z</time>
      </trkpt>
      <trkpt lat="43.82344" lon="4.63344">
        <ele>-11.7</ele>
        <time>2021-08-14T16:05:11Z</time>
      </trkpt>
      <trkpt lat="43.82288" lon="4.63445">
        <ele>-13.7</ele>
        <time>2021-08-14T16:06:27Z</time>
      </trkpt>
      <trkpt lat="43.82225" lon="4.63555">
        <ele>-12.8</ele>
        <time>2021-08-14T16:07:07Z</time>
      </trkpt>
      <trkpt lat="43.82172" lon="4.63656">
        <ele>-15.1</ele>
        <time>2021-08-14T16:07:37Z</time>
      </trkpt>
      <trkpt lat="43.82114" lon="4.63752">
        <ele>-19.1</ele>
        <time>2021-08-14T16:08:07Z</time>
      </trkpt>
    </trkseg>
  </trk>
</gpx>